<?xml version='1.0' encoding='UTF-8'?>
<gpx version="1.1" creator="https://www.komoot.de" xmlns="http://www.topografix.com/GPX/1/1" xmlns:xsi="http://www.w3.org/2001/XMLSchema-instance" xsi:schemaLocation="http://www.topografix.com/GPX/1/1 http://www.topografix.com/GPX/1/1/gpx.xsd">
  <metadata>
    <name>GPX Download: Aussichtsturm Dümmer West – Blick auf den Dümmer See Runde von Lohne (Oldb)</name>
    <author>
      <link href="https://www.komoot.de">
        <text>komoot</text>
        <type>text/html</type>
      </link>
    </author>
  </metadata>
  <wpt lat="52.525172" lon="8.313641">
    <name>Westliche Dümmerniederung</name>
    <sym>Flag, Blue</sym>
  </wpt>
  <wpt lat="52.521610" lon="8.310221">
    <name>Aussichtsturm Dümmer West</name>
    <sym>Flag, Blue</sym>
  </wpt>
  <wpt lat="52.492656" lon="8.308642">
    <name>Brücke über die Hunte</name>
    <sym>Bridge</sym>
  </wpt>
  <wpt lat="52.489284" lon="8.312953">
    <name>Aussichtspunkt Randkanal Moor</name>
    <sym>Flag, Blue</sym>
  </wpt>
  <wpt lat="52.487926" lon="8.328528">
    <name>Aussichtsturm am südlichen Dümmersee</name>
    <sym>Flag, Blue</sym>
  </wpt>
  <wpt lat="52.509976" lon="8.356852">
    <name>Aussichtsturm Ostseite</name>
    <sym>Flag, Blue</sym>
  </wpt>
  <wpt lat="52.516040" lon="8.364760">
    <name>Lembruch‑Strand am Dümmer</name>
    <sym>Flag, Blue</sym>
  </wpt>
  <wpt lat="52.521879" lon="8.360923">
    <name>Blick auf den Dümmer See</name>
    <sym>Flag, Blue</sym>
  </wpt>
  <wpt lat="52.524450" lon="8.358401">
    <name>Strand am Dümmer See in Hüde</name>
    <sym>Flag, Blue</sym>
  </wpt>
  <wpt lat="52.526807" lon="8.356668">
    <name>Dümmer See Marina</name>
    <sym>Flag, Blue</sym>
  </wpt>
  <trk>
    <name>GPX Download: Aussichtsturm Dümmer West – Blick auf den Dümmer See Runde von Lohne (Oldb)</name>
    <trkseg>
      <trkpt lat="52.671256" lon="8.219017">
        <ele>31.895133</ele>
        <time>2026-03-20T11:14:59.072Z</time>
      </trkpt>
      <trkpt lat="52.671333" lon="8.219059">
        <ele>31.895133</ele>
        <time>2026-03-20T11:15:01.453Z</time>
      </trkpt>
      <trkpt lat="52.671399" lon="8.219092">
        <ele>31.895133</ele>
        <time>2026-03-20T11:15:03.444Z</time>
      </trkpt>
      <trkpt lat="52.671334" lon="8.219419">
        <ele>31.895133</ele>
        <time>2026-03-20T11:15:08.216Z</time>
      </trkpt>
      <trkpt lat="52.671324" lon="8.219465">
        <ele>31.895133</ele>
        <time>2026-03-20T11:15:08.895Z</time>
      </trkpt>
      <trkpt lat="52.671263" lon="8.219769">
        <ele>31.895133</ele>
        <time>2026-03-20T11:15:13.349Z</time>
      </trkpt>
      <trkpt lat="52.671221" lon="8.219955">
        <ele>31.895133</ele>
        <time>2026-03-20T11:15:16.163Z</time>
      </trkpt>
      <trkpt lat="52.670959" lon="8.221219">
        <ele>32.260230</ele>
        <time>2026-03-20T11:15:35.804Z</time>
      </trkpt>
      <trkpt lat="52.670611" lon="8.222965">
        <ele>32.923365</ele>
        <time>2026-03-20T11:16:04.960Z</time>
      </trkpt>
      <trkpt lat="52.670338" lon="8.224274">
        <ele>33.680720</ele>
        <time>2026-03-20T11:16:27.523Z</time>
      </trkpt>
      <trkpt lat="52.670311" lon="8.224412">
        <ele>33.762535</ele>
        <time>2026-03-20T11:16:29.973Z</time>
      </trkpt>
      <trkpt lat="52.670188" lon="8.224917">
        <ele>34.069591</ele>
        <time>2026-03-20T11:16:39.040Z</time>
      </trkpt>
      <trkpt lat="52.670085" lon="8.225165">
        <ele>34.239191</ele>
        <time>2026-03-20T11:16:43.989Z</time>
      </trkpt>
      <trkpt lat="52.669910" lon="8.225361">
        <ele>34.436022</ele>
        <time>2026-03-20T11:16:49.644Z</time>
      </trkpt>
      <trkpt lat="52.669618" lon="8.225457">
        <ele>34.682178</ele>
        <time>2026-03-20T11:16:57.489Z</time>
      </trkpt>
      <trkpt lat="52.669261" lon="8.225410">
        <ele>34.876678</ele>
        <time>2026-03-20T11:17:06.977Z</time>
      </trkpt>
      <trkpt lat="52.669100" lon="8.225433">
        <ele>34.964442</ele>
        <time>2026-03-20T11:17:11.335Z</time>
      </trkpt>
      <trkpt lat="52.668950" lon="8.225511">
        <ele>35.049860</ele>
        <time>2026-03-20T11:17:15.524Z</time>
      </trkpt>
      <trkpt lat="52.668814" lon="8.225630">
        <ele>35.133474</ele>
        <time>2026-03-20T11:17:19.526Z</time>
      </trkpt>
      <trkpt lat="52.668702" lon="8.225779">
        <ele>35.211626</ele>
        <time>2026-03-20T11:17:23.173Z</time>
      </trkpt>
      <trkpt lat="52.668421" lon="8.226423">
        <ele>35.472919</ele>
        <time>2026-03-20T11:17:34.717Z</time>
      </trkpt>
      <trkpt lat="52.668287" lon="8.226741">
        <ele>35.600452</ele>
        <time>2026-03-20T11:17:40.309Z</time>
      </trkpt>
      <trkpt lat="52.668061" lon="8.227139">
        <ele>35.607307</ele>
        <time>2026-03-20T11:17:48.270Z</time>
      </trkpt>
      <trkpt lat="52.667957" lon="8.227267">
        <ele>35.603706</ele>
        <time>2026-03-20T11:17:51.404Z</time>
      </trkpt>
      <trkpt lat="52.667863" lon="8.227383">
        <ele>35.600447</ele>
        <time>2026-03-20T11:17:54.227Z</time>
      </trkpt>
      <trkpt lat="52.668046" lon="8.227887">
        <ele>35.590560</ele>
        <time>2026-03-20T11:18:02.154Z</time>
      </trkpt>
      <trkpt lat="52.668149" lon="8.228263">
        <ele>35.583616</ele>
        <time>2026-03-20T11:18:07.235Z</time>
      </trkpt>
      <trkpt lat="52.668315" lon="8.229163">
        <ele>35.567783</ele>
        <time>2026-03-20T11:18:19.518Z</time>
      </trkpt>
      <trkpt lat="52.668345" lon="8.229314">
        <ele>35.593357</ele>
        <time>2026-03-20T11:18:21.658Z</time>
      </trkpt>
      <trkpt lat="52.668487" lon="8.229817">
        <ele>35.973898</ele>
        <time>2026-03-20T11:18:29.077Z</time>
      </trkpt>
      <trkpt lat="52.668570" lon="8.230049">
        <ele>36.158645</ele>
        <time>2026-03-20T11:18:32.912Z</time>
      </trkpt>
      <trkpt lat="52.668415" lon="8.230185">
        <ele>36.357221</ele>
        <time>2026-03-20T11:18:37.189Z</time>
      </trkpt>
      <trkpt lat="52.668064" lon="8.230645">
        <ele>36.864303</ele>
        <time>2026-03-20T11:18:48.962Z</time>
      </trkpt>
      <trkpt lat="52.668008" lon="8.230603">
        <ele>36.933883</ele>
        <time>2026-03-20T11:18:50.693Z</time>
      </trkpt>
      <trkpt lat="52.667923" lon="8.230652">
        <ele>37.035722</ele>
        <time>2026-03-20T11:18:53.270Z</time>
      </trkpt>
      <trkpt lat="52.667895" lon="8.230792">
        <ele>37.136832</ele>
        <time>2026-03-20T11:18:55.949Z</time>
      </trkpt>
      <trkpt lat="52.667921" lon="8.230882">
        <ele>37.205207</ele>
        <time>2026-03-20T11:18:57.791Z</time>
      </trkpt>
      <trkpt lat="52.667598" lon="8.231357">
        <ele>37.808683</ele>
        <time>2026-03-20T11:19:11.866Z</time>
      </trkpt>
      <trkpt lat="52.667315" lon="8.231824">
        <ele>38.806882</ele>
        <time>2026-03-20T11:19:25.667Z</time>
      </trkpt>
      <trkpt lat="52.666904" lon="8.232501">
        <ele>40.255262</ele>
        <time>2026-03-20T11:19:45.891Z</time>
      </trkpt>
      <trkpt lat="52.666714" lon="8.232810">
        <ele>40.920604</ele>
        <time>2026-03-20T11:19:54.368Z</time>
      </trkpt>
      <trkpt lat="52.666546" lon="8.233083">
        <ele>41.508674</ele>
        <time>2026-03-20T11:20:01.587Z</time>
      </trkpt>
      <trkpt lat="52.666420" lon="8.233289">
        <ele>41.951055</ele>
        <time>2026-03-20T11:20:06.907Z</time>
      </trkpt>
      <trkpt lat="52.666190" lon="8.233679">
        <ele>42.479453</ele>
        <time>2026-03-20T11:20:16.745Z</time>
      </trkpt>
      <trkpt lat="52.666100" lon="8.234031">
        <ele>42.810538</ele>
        <time>2026-03-20T11:20:23.563Z</time>
      </trkpt>
      <trkpt lat="52.666119" lon="8.234331">
        <ele>43.071963</ele>
        <time>2026-03-20T11:20:28.876Z</time>
      </trkpt>
      <trkpt lat="52.666164" lon="8.234524">
        <ele>43.251173</ele>
        <time>2026-03-20T11:20:32.360Z</time>
      </trkpt>
      <trkpt lat="52.666077" lon="8.234903">
        <ele>43.602397</ele>
        <time>2026-03-20T11:20:39.046Z</time>
      </trkpt>
      <trkpt lat="52.665969" lon="8.235320">
        <ele>43.995390</ele>
        <time>2026-03-20T11:20:46.387Z</time>
      </trkpt>
      <trkpt lat="52.665773" lon="8.235702">
        <ele>44.429068</ele>
        <time>2026-03-20T11:20:54.925Z</time>
      </trkpt>
      <trkpt lat="52.665660" lon="8.235907">
        <ele>44.653444</ele>
        <time>2026-03-20T11:21:00.829Z</time>
      </trkpt>
      <trkpt lat="52.665644" lon="8.236455">
        <ele>44.605167</ele>
        <time>2026-03-20T11:21:10.456Z</time>
      </trkpt>
      <trkpt lat="52.665673" lon="8.236676">
        <ele>44.585269</ele>
        <time>2026-03-20T11:21:14.139Z</time>
      </trkpt>
      <trkpt lat="52.665731" lon="8.236914">
        <ele>44.562699</ele>
        <time>2026-03-20T11:21:18.964Z</time>
      </trkpt>
      <trkpt lat="52.665781" lon="8.237297">
        <ele>44.528224</ele>
        <time>2026-03-20T11:21:24.464Z</time>
      </trkpt>
      <trkpt lat="52.665720" lon="8.238052">
        <ele>44.461200</ele>
        <time>2026-03-20T11:21:34.286Z</time>
      </trkpt>
      <trkpt lat="52.665670" lon="8.238252">
        <ele>44.442164</ele>
        <time>2026-03-20T11:21:36.882Z</time>
      </trkpt>
      <trkpt lat="52.665581" lon="8.238242">
        <ele>44.429221</ele>
        <time>2026-03-20T11:21:38.534Z</time>
      </trkpt>
      <trkpt lat="52.665309" lon="8.238562">
        <ele>44.285429</ele>
        <time>2026-03-20T11:21:44.761Z</time>
      </trkpt>
      <trkpt lat="52.664915" lon="8.238788">
        <ele>43.787110</ele>
        <time>2026-03-20T11:21:52.312Z</time>
      </trkpt>
      <trkpt lat="52.664809" lon="8.238862">
        <ele>43.649606</ele>
        <time>2026-03-20T11:21:54.375Z</time>
      </trkpt>
      <trkpt lat="52.664783" lon="8.238881">
        <ele>43.615634</ele>
        <time>2026-03-20T11:21:54.892Z</time>
      </trkpt>
      <trkpt lat="52.664690" lon="8.238962">
        <ele>43.489995</ele>
        <time>2026-03-20T11:21:56.766Z</time>
      </trkpt>
      <trkpt lat="52.664130" lon="8.239454">
        <ele>42.732008</ele>
        <time>2026-03-20T11:22:08.820Z</time>
      </trkpt>
      <trkpt lat="52.664026" lon="8.239584">
        <ele>42.576110</ele>
        <time>2026-03-20T11:22:11.388Z</time>
      </trkpt>
      <trkpt lat="52.663694" lon="8.239848">
        <ele>42.185077</ele>
        <time>2026-03-20T11:22:18.743Z</time>
      </trkpt>
      <trkpt lat="52.663660" lon="8.239874">
        <ele>42.160445</ele>
        <time>2026-03-20T11:22:19.511Z</time>
      </trkpt>
      <trkpt lat="52.663593" lon="8.239917">
        <ele>42.113192</ele>
        <time>2026-03-20T11:22:20.987Z</time>
      </trkpt>
      <trkpt lat="52.663331" lon="8.240096">
        <ele>41.926800</ele>
        <time>2026-03-20T11:22:26.791Z</time>
      </trkpt>
      <trkpt lat="52.662654" lon="8.240567">
        <ele>41.443866</ele>
        <time>2026-03-20T11:22:41.425Z</time>
      </trkpt>
      <trkpt lat="52.662625" lon="8.240564">
        <ele>41.424769</ele>
        <time>2026-03-20T11:22:41.997Z</time>
      </trkpt>
      <trkpt lat="52.662551" lon="8.240550">
        <ele>41.375814</ele>
        <time>2026-03-20T11:22:43.468Z</time>
      </trkpt>
      <trkpt lat="52.662096" lon="8.240432">
        <ele>41.073097</ele>
        <time>2026-03-20T11:22:52.959Z</time>
      </trkpt>
      <trkpt lat="52.661104" lon="8.240154">
        <ele>41.134158</ele>
        <time>2026-03-20T11:23:15.704Z</time>
      </trkpt>
      <trkpt lat="52.660783" lon="8.240070">
        <ele>41.157420</ele>
        <time>2026-03-20T11:23:23.608Z</time>
      </trkpt>
      <trkpt lat="52.660656" lon="8.240040">
        <ele>41.166603</ele>
        <time>2026-03-20T11:23:26.763Z</time>
      </trkpt>
      <trkpt lat="52.659935" lon="8.239851">
        <ele>41.426595</ele>
        <time>2026-03-20T11:23:45.434Z</time>
      </trkpt>
      <trkpt lat="52.659419" lon="8.239910">
        <ele>41.749449</ele>
        <time>2026-03-20T11:23:58.948Z</time>
      </trkpt>
      <trkpt lat="52.659148" lon="8.240030">
        <ele>41.924598</ele>
        <time>2026-03-20T11:24:06.217Z</time>
      </trkpt>
      <trkpt lat="52.658998" lon="8.240093">
        <ele>42.021217</ele>
        <time>2026-03-20T11:24:10.250Z</time>
      </trkpt>
      <trkpt lat="52.657069" lon="8.240936">
        <ele>43.066512</ele>
        <time>2026-03-20T11:25:00.454Z</time>
      </trkpt>
      <trkpt lat="52.656845" lon="8.241023">
        <ele>43.179935</ele>
        <time>2026-03-20T11:25:06.153Z</time>
      </trkpt>
      <trkpt lat="52.655928" lon="8.241438">
        <ele>43.810094</ele>
        <time>2026-03-20T11:25:30.455Z</time>
      </trkpt>
      <trkpt lat="52.655647" lon="8.241560">
        <ele>44.004992</ele>
        <time>2026-03-20T11:25:37.996Z</time>
      </trkpt>
      <trkpt lat="52.655444" lon="8.241652">
        <ele>44.146199</ele>
        <time>2026-03-20T11:25:43.579Z</time>
      </trkpt>
      <trkpt lat="52.655076" lon="8.241821">
        <ele>44.402422</ele>
        <time>2026-03-20T11:25:53.822Z</time>
      </trkpt>
      <trkpt lat="52.654547" lon="8.242079">
        <ele>44.420614</ele>
        <time>2026-03-20T11:26:08.321Z</time>
      </trkpt>
      <trkpt lat="52.654263" lon="8.242208">
        <ele>44.427716</ele>
        <time>2026-03-20T11:26:15.714Z</time>
      </trkpt>
      <trkpt lat="52.653091" lon="8.242736">
        <ele>44.264165</ele>
        <time>2026-03-20T11:26:41.844Z</time>
      </trkpt>
      <trkpt lat="52.653050" lon="8.242751">
        <ele>44.233419</ele>
        <time>2026-03-20T11:26:42.664Z</time>
      </trkpt>
      <trkpt lat="52.652460" lon="8.243012">
        <ele>43.786212</ele>
        <time>2026-03-20T11:26:54.681Z</time>
      </trkpt>
      <trkpt lat="52.652393" lon="8.242947">
        <ele>43.729298</ele>
        <time>2026-03-20T11:26:56.136Z</time>
      </trkpt>
      <trkpt lat="52.651038" lon="8.243567">
        <ele>43.480496</ele>
        <time>2026-03-20T11:27:25.161Z</time>
      </trkpt>
      <trkpt lat="52.650986" lon="8.243565">
        <ele>43.510866</ele>
        <time>2026-03-20T11:27:26.786Z</time>
      </trkpt>
      <trkpt lat="52.650919" lon="8.243490">
        <ele>43.558154</ele>
        <time>2026-03-20T11:27:29.396Z</time>
      </trkpt>
      <trkpt lat="52.650890" lon="8.243413">
        <ele>43.590258</ele>
        <time>2026-03-20T11:27:31.131Z</time>
      </trkpt>
      <trkpt lat="52.650806" lon="8.243420">
        <ele>43.639367</ele>
        <time>2026-03-20T11:27:33.851Z</time>
      </trkpt>
      <trkpt lat="52.650748" lon="8.243426">
        <ele>43.673299</ele>
        <time>2026-03-20T11:27:35.717Z</time>
      </trkpt>
      <trkpt lat="52.650602" lon="8.243749">
        <ele>43.815980</ele>
        <time>2026-03-20T11:27:43.841Z</time>
      </trkpt>
      <trkpt lat="52.650528" lon="8.243795">
        <ele>43.862158</ele>
        <time>2026-03-20T11:27:46.504Z</time>
      </trkpt>
      <trkpt lat="52.649745" lon="8.244154">
        <ele>44.341075</ele>
        <time>2026-03-20T11:28:09.442Z</time>
      </trkpt>
      <trkpt lat="52.649209" lon="8.244402">
        <ele>44.675473</ele>
        <time>2026-03-20T11:28:24.336Z</time>
      </trkpt>
      <trkpt lat="52.648615" lon="8.244659">
        <ele>45.044353</ele>
        <time>2026-03-20T11:28:38.988Z</time>
      </trkpt>
      <trkpt lat="52.647514" lon="8.245154">
        <ele>45.126803</ele>
        <time>2026-03-20T11:29:02.667Z</time>
      </trkpt>
      <trkpt lat="52.647406" lon="8.245260">
        <ele>45.104421</ele>
        <time>2026-03-20T11:29:05.248Z</time>
      </trkpt>
      <trkpt lat="52.646869" lon="8.245484">
        <ele>45.005788</ele>
        <time>2026-03-20T11:29:21.087Z</time>
      </trkpt>
      <trkpt lat="52.646693" lon="8.245524">
        <ele>44.974153</ele>
        <time>2026-03-20T11:29:26.377Z</time>
      </trkpt>
      <trkpt lat="52.646535" lon="8.245491">
        <ele>44.945794</ele>
        <time>2026-03-20T11:29:31.188Z</time>
      </trkpt>
      <trkpt lat="52.645123" lon="8.245551">
        <ele>45.140059</ele>
        <time>2026-03-20T11:30:04.153Z</time>
      </trkpt>
      <trkpt lat="52.644574" lon="8.245529">
        <ele>45.123158</ele>
        <time>2026-03-20T11:30:16.168Z</time>
      </trkpt>
      <trkpt lat="52.644331" lon="8.245626">
        <ele>45.007642</ele>
        <time>2026-03-20T11:30:21.496Z</time>
      </trkpt>
      <trkpt lat="52.643616" lon="8.245518">
        <ele>44.675914</ele>
        <time>2026-03-20T11:30:36.513Z</time>
      </trkpt>
      <trkpt lat="52.643256" lon="8.245428">
        <ele>44.507685</ele>
        <time>2026-03-20T11:30:43.792Z</time>
      </trkpt>
      <trkpt lat="52.642846" lon="8.245261">
        <ele>44.282675</ele>
        <time>2026-03-20T11:30:52.005Z</time>
      </trkpt>
      <trkpt lat="52.640920" lon="8.244087">
        <ele>43.638212</ele>
        <time>2026-03-20T11:31:32.463Z</time>
      </trkpt>
      <trkpt lat="52.640891" lon="8.244191">
        <ele>43.749966</ele>
        <time>2026-03-20T11:31:34.277Z</time>
      </trkpt>
      <trkpt lat="52.640825" lon="8.244366">
        <ele>43.951149</ele>
        <time>2026-03-20T11:31:37.567Z</time>
      </trkpt>
      <trkpt lat="52.640802" lon="8.244401">
        <ele>44.001523</ele>
        <time>2026-03-20T11:31:38.430Z</time>
      </trkpt>
      <trkpt lat="52.640815" lon="8.244574">
        <ele>44.171731</ele>
        <time>2026-03-20T11:31:41.340Z</time>
      </trkpt>
      <trkpt lat="52.640769" lon="8.244823">
        <ele>44.425873</ele>
        <time>2026-03-20T11:31:45.889Z</time>
      </trkpt>
      <trkpt lat="52.639661" lon="8.247757">
        <ele>49.002959</ele>
        <time>2026-03-20T11:32:56.794Z</time>
      </trkpt>
      <trkpt lat="52.639669" lon="8.247892">
        <ele>49.221204</ele>
        <time>2026-03-20T11:32:59.631Z</time>
      </trkpt>
      <trkpt lat="52.639824" lon="8.249072">
        <ele>50.948965</ele>
        <time>2026-03-20T11:33:22.980Z</time>
      </trkpt>
      <trkpt lat="52.639926" lon="8.250144">
        <ele>51.863896</ele>
        <time>2026-03-20T11:33:41.402Z</time>
      </trkpt>
      <trkpt lat="52.639958" lon="8.250792">
        <ele>52.412081</ele>
        <time>2026-03-20T11:33:51.815Z</time>
      </trkpt>
      <trkpt lat="52.639910" lon="8.251671">
        <ele>53.156228</ele>
        <time>2026-03-20T11:34:05.620Z</time>
      </trkpt>
      <trkpt lat="52.639286" lon="8.258200">
        <ele>57.445360</ele>
        <time>2026-03-20T11:35:55.004Z</time>
      </trkpt>
      <trkpt lat="52.639215" lon="8.259215">
        <ele>57.331996</ele>
        <time>2026-03-20T11:36:07.975Z</time>
      </trkpt>
      <trkpt lat="52.639222" lon="8.260415">
        <ele>57.198844</ele>
        <time>2026-03-20T11:36:21.907Z</time>
      </trkpt>
      <trkpt lat="52.638953" lon="8.260412">
        <ele>57.366788</ele>
        <time>2026-03-20T11:36:31.117Z</time>
      </trkpt>
      <trkpt lat="52.638684" lon="8.260410">
        <ele>57.621447</ele>
        <time>2026-03-20T11:36:40.640Z</time>
      </trkpt>
      <trkpt lat="52.638433" lon="8.260366">
        <ele>57.860403</ele>
        <time>2026-03-20T11:36:50.145Z</time>
      </trkpt>
      <trkpt lat="52.638263" lon="8.260297">
        <ele>58.026148</ele>
        <time>2026-03-20T11:36:57.071Z</time>
      </trkpt>
      <trkpt lat="52.636930" lon="8.259098">
        <ele>59.950054</ele>
        <time>2026-03-20T11:38:06.523Z</time>
      </trkpt>
      <trkpt lat="52.636795" lon="8.259020">
        <ele>60.199750</ele>
        <time>2026-03-20T11:38:13.320Z</time>
      </trkpt>
      <trkpt lat="52.636463" lon="8.258939">
        <ele>60.785546</ele>
        <time>2026-03-20T11:38:28.755Z</time>
      </trkpt>
      <trkpt lat="52.635861" lon="8.258990">
        <ele>61.837675</ele>
        <time>2026-03-20T11:38:54.602Z</time>
      </trkpt>
      <trkpt lat="52.635520" lon="8.259147">
        <ele>62.108212</ele>
        <time>2026-03-20T11:39:08.581Z</time>
      </trkpt>
      <trkpt lat="52.635443" lon="8.259181">
        <ele>62.134593</ele>
        <time>2026-03-20T11:39:10.446Z</time>
      </trkpt>
      <trkpt lat="52.634516" lon="8.259550">
        <ele>62.450196</ele>
        <time>2026-03-20T11:39:31.608Z</time>
      </trkpt>
      <trkpt lat="52.632802" lon="8.260234">
        <ele>63.274915</ele>
        <time>2026-03-20T11:40:13.466Z</time>
      </trkpt>
      <trkpt lat="52.631984" lon="8.260561">
        <ele>63.680210</ele>
        <time>2026-03-20T11:40:47.707Z</time>
      </trkpt>
      <trkpt lat="52.631625" lon="8.260659">
        <ele>63.825008</ele>
        <time>2026-03-20T11:41:02.062Z</time>
      </trkpt>
      <trkpt lat="52.631314" lon="8.260829">
        <ele>63.955392</ele>
        <time>2026-03-20T11:41:14.642Z</time>
      </trkpt>
      <trkpt lat="52.630242" lon="8.261063">
        <ele>64.300511</ele>
        <time>2026-03-20T11:41:55.379Z</time>
      </trkpt>
      <trkpt lat="52.630050" lon="8.261077">
        <ele>64.314343</ele>
        <time>2026-03-20T11:42:02.397Z</time>
      </trkpt>
      <trkpt lat="52.629398" lon="8.261261">
        <ele>64.361951</ele>
        <time>2026-03-20T11:42:27.649Z</time>
      </trkpt>
      <trkpt lat="52.629193" lon="8.261356">
        <ele>64.377277</ele>
        <time>2026-03-20T11:42:35.831Z</time>
      </trkpt>
      <trkpt lat="52.629020" lon="8.261487">
        <ele>64.390980</ele>
        <time>2026-03-20T11:42:41.544Z</time>
      </trkpt>
      <trkpt lat="52.628964" lon="8.261487">
        <ele>64.395011</ele>
        <time>2026-03-20T11:42:43.243Z</time>
      </trkpt>
      <trkpt lat="52.628913" lon="8.261359">
        <ele>64.401699</ele>
        <time>2026-03-20T11:42:45.436Z</time>
      </trkpt>
      <trkpt lat="52.628851" lon="8.261412">
        <ele>64.406726</ele>
        <time>2026-03-20T11:42:46.992Z</time>
      </trkpt>
      <trkpt lat="52.628829" lon="8.261337">
        <ele>64.410365</ele>
        <time>2026-03-20T11:42:48.923Z</time>
      </trkpt>
      <trkpt lat="52.627710" lon="8.262298">
        <ele>62.997137</ele>
        <time>2026-03-20T11:43:13.468Z</time>
      </trkpt>
      <trkpt lat="52.627008" lon="8.262737">
        <ele>62.088049</ele>
        <time>2026-03-20T11:43:26.667Z</time>
      </trkpt>
      <trkpt lat="52.626610" lon="8.262883">
        <ele>61.506068</ele>
        <time>2026-03-20T11:43:33.846Z</time>
      </trkpt>
      <trkpt lat="52.626229" lon="8.262975">
        <ele>60.956453</ele>
        <time>2026-03-20T11:43:40.755Z</time>
      </trkpt>
      <trkpt lat="52.625463" lon="8.263048">
        <ele>59.861307</ele>
        <time>2026-03-20T11:43:55.270Z</time>
      </trkpt>
      <trkpt lat="52.624044" lon="8.263078">
        <ele>59.524971</ele>
        <time>2026-03-20T11:44:26.304Z</time>
      </trkpt>
      <trkpt lat="52.623664" lon="8.263048">
        <ele>59.446378</ele>
        <time>2026-03-20T11:44:35.211Z</time>
      </trkpt>
      <trkpt lat="52.623244" lon="8.263129">
        <ele>59.179516</ele>
        <time>2026-03-20T11:44:44.395Z</time>
      </trkpt>
      <trkpt lat="52.623178" lon="8.263180">
        <ele>59.130765</ele>
        <time>2026-03-20T11:44:45.910Z</time>
      </trkpt>
      <trkpt lat="52.622810" lon="8.263391">
        <ele>58.870194</ele>
        <time>2026-03-20T11:44:53.520Z</time>
      </trkpt>
      <trkpt lat="52.622643" lon="8.263549">
        <ele>58.741408</ele>
        <time>2026-03-20T11:44:57.252Z</time>
      </trkpt>
      <trkpt lat="52.622207" lon="8.263863">
        <ele>58.423197</ele>
        <time>2026-03-20T11:45:06.595Z</time>
      </trkpt>
      <trkpt lat="52.622062" lon="8.263965">
        <ele>58.317761</ele>
        <time>2026-03-20T11:45:09.667Z</time>
      </trkpt>
      <trkpt lat="52.621823" lon="8.264209">
        <ele>58.173955</ele>
        <time>2026-03-20T11:45:14.991Z</time>
      </trkpt>
      <trkpt lat="52.621316" lon="8.264788">
        <ele>57.932342</ele>
        <time>2026-03-20T11:45:27.086Z</time>
      </trkpt>
      <trkpt lat="52.621206" lon="8.264968">
        <ele>57.871618</ele>
        <time>2026-03-20T11:45:30.279Z</time>
      </trkpt>
      <trkpt lat="52.621040" lon="8.265351">
        <ele>57.759731</ele>
        <time>2026-03-20T11:45:36.473Z</time>
      </trkpt>
      <trkpt lat="52.620936" lon="8.265210">
        <ele>57.706978</ele>
        <time>2026-03-20T11:45:39.593Z</time>
      </trkpt>
      <trkpt lat="52.620834" lon="8.265217">
        <ele>57.666997</ele>
        <time>2026-03-20T11:45:41.937Z</time>
      </trkpt>
      <trkpt lat="52.619530" lon="8.265292">
        <ele>58.406016</ele>
        <time>2026-03-20T11:46:13.567Z</time>
      </trkpt>
      <trkpt lat="52.618992" lon="8.265333">
        <ele>58.896217</ele>
        <time>2026-03-20T11:46:29.270Z</time>
      </trkpt>
      <trkpt lat="52.617948" lon="8.265426">
        <ele>59.838884</ele>
        <time>2026-03-20T11:47:01.194Z</time>
      </trkpt>
      <trkpt lat="52.616110" lon="8.265533">
        <ele>60.705636</ele>
        <time>2026-03-20T11:47:46.004Z</time>
      </trkpt>
      <trkpt lat="52.615571" lon="8.265566">
        <ele>60.651435</ele>
        <time>2026-03-20T11:47:57.901Z</time>
      </trkpt>
      <trkpt lat="52.614966" lon="8.265605">
        <ele>60.554819</ele>
        <time>2026-03-20T11:48:10.854Z</time>
      </trkpt>
      <trkpt lat="52.614871" lon="8.265611">
        <ele>60.519572</ele>
        <time>2026-03-20T11:48:12.812Z</time>
      </trkpt>
      <trkpt lat="52.614745" lon="8.265686">
        <ele>60.469901</ele>
        <time>2026-03-20T11:48:15.590Z</time>
      </trkpt>
      <trkpt lat="52.614710" lon="8.265728">
        <ele>60.453846</ele>
        <time>2026-03-20T11:48:16.503Z</time>
      </trkpt>
      <trkpt lat="52.614528" lon="8.266008">
        <ele>60.361512</ele>
        <time>2026-03-20T11:48:22.183Z</time>
      </trkpt>
      <trkpt lat="52.614217" lon="8.266433">
        <ele>60.211688</ele>
        <time>2026-03-20T11:48:31.717Z</time>
      </trkpt>
      <trkpt lat="52.614166" lon="8.266465">
        <ele>60.191454</ele>
        <time>2026-03-20T11:48:33.052Z</time>
      </trkpt>
      <trkpt lat="52.614009" lon="8.266464">
        <ele>60.133247</ele>
        <time>2026-03-20T11:48:36.859Z</time>
      </trkpt>
      <trkpt lat="52.612715" lon="8.265693">
        <ele>59.767372</ele>
        <time>2026-03-20T11:49:09.700Z</time>
      </trkpt>
      <trkpt lat="52.611906" lon="8.265868">
        <ele>59.603888</ele>
        <time>2026-03-20T11:49:29.532Z</time>
      </trkpt>
      <trkpt lat="52.611379" lon="8.265923">
        <ele>59.346179</ele>
        <time>2026-03-20T11:49:42.012Z</time>
      </trkpt>
      <trkpt lat="52.610621" lon="8.266030">
        <ele>58.899135</ele>
        <time>2026-03-20T11:49:59.532Z</time>
      </trkpt>
      <trkpt lat="52.609915" lon="8.266002">
        <ele>58.430393</ele>
        <time>2026-03-20T11:50:15.201Z</time>
      </trkpt>
      <trkpt lat="52.609682" lon="8.266044">
        <ele>58.084728</ele>
        <time>2026-03-20T11:50:20.256Z</time>
      </trkpt>
      <trkpt lat="52.608876" lon="8.266165">
        <ele>56.891168</ele>
        <time>2026-03-20T11:50:37.162Z</time>
      </trkpt>
      <trkpt lat="52.608401" lon="8.266104">
        <ele>56.188545</ele>
        <time>2026-03-20T11:50:46.795Z</time>
      </trkpt>
      <trkpt lat="52.607689" lon="8.266129">
        <ele>54.836993</ele>
        <time>2026-03-20T11:51:00.832Z</time>
      </trkpt>
      <trkpt lat="52.607568" lon="8.266164">
        <ele>54.580933</ele>
        <time>2026-03-20T11:51:03.196Z</time>
      </trkpt>
      <trkpt lat="52.607407" lon="8.266208">
        <ele>54.240773</ele>
        <time>2026-03-20T11:51:06.358Z</time>
      </trkpt>
      <trkpt lat="52.606588" lon="8.266246">
        <ele>52.533066</ele>
        <time>2026-03-20T11:51:22.308Z</time>
      </trkpt>
      <trkpt lat="52.605664" lon="8.266326">
        <ele>51.467243</ele>
        <time>2026-03-20T11:51:41.347Z</time>
      </trkpt>
      <trkpt lat="52.603769" lon="8.266570">
        <ele>50.543528</ele>
        <time>2026-03-20T11:52:49.395Z</time>
      </trkpt>
      <trkpt lat="52.603315" lon="8.266612">
        <ele>50.564173</ele>
        <time>2026-03-20T11:53:06.669Z</time>
      </trkpt>
      <trkpt lat="52.603138" lon="8.266590">
        <ele>50.572232</ele>
        <time>2026-03-20T11:53:13.493Z</time>
      </trkpt>
      <trkpt lat="52.603090" lon="8.266622">
        <ele>50.574583</ele>
        <time>2026-03-20T11:53:15.488Z</time>
      </trkpt>
      <trkpt lat="52.601339" lon="8.266762">
        <ele>51.515506</ele>
        <time>2026-03-20T11:54:24.294Z</time>
      </trkpt>
      <trkpt lat="52.600836" lon="8.266854">
        <ele>51.933543</ele>
        <time>2026-03-20T11:54:44.608Z</time>
      </trkpt>
      <trkpt lat="52.600450" lon="8.266912">
        <ele>52.396374</ele>
        <time>2026-03-20T11:55:00.621Z</time>
      </trkpt>
      <trkpt lat="52.599520" lon="8.266946">
        <ele>53.507145</ele>
        <time>2026-03-20T11:55:39.987Z</time>
      </trkpt>
      <trkpt lat="52.599053" lon="8.267017">
        <ele>53.978252</ele>
        <time>2026-03-20T11:56:00.641Z</time>
      </trkpt>
      <trkpt lat="52.598430" lon="8.267026">
        <ele>54.381364</ele>
        <time>2026-03-20T11:56:26.367Z</time>
      </trkpt>
      <trkpt lat="52.598207" lon="8.267062">
        <ele>54.526342</ele>
        <time>2026-03-20T11:56:35.184Z</time>
      </trkpt>
      <trkpt lat="52.598141" lon="8.267069">
        <ele>54.569134</ele>
        <time>2026-03-20T11:56:37.727Z</time>
      </trkpt>
      <trkpt lat="52.597345" lon="8.267113">
        <ele>54.993001</ele>
        <time>2026-03-20T11:57:07.882Z</time>
      </trkpt>
      <trkpt lat="52.596569" lon="8.267204">
        <ele>54.528951</ele>
        <time>2026-03-20T11:57:35.359Z</time>
      </trkpt>
      <trkpt lat="52.595591" lon="8.267236">
        <ele>53.965567</ele>
        <time>2026-03-20T11:58:08.670Z</time>
      </trkpt>
      <trkpt lat="52.595246" lon="8.267168">
        <ele>53.983131</ele>
        <time>2026-03-20T11:58:20.460Z</time>
      </trkpt>
      <trkpt lat="52.594986" lon="8.267164">
        <ele>53.996275</ele>
        <time>2026-03-20T11:58:29.322Z</time>
      </trkpt>
      <trkpt lat="52.594002" lon="8.267417">
        <ele>54.046619</ele>
        <time>2026-03-20T11:59:06.849Z</time>
      </trkpt>
      <trkpt lat="52.592364" lon="8.267804">
        <ele>55.986290</ele>
        <time>2026-03-20T12:00:20.150Z</time>
      </trkpt>
      <trkpt lat="52.591066" lon="8.268156">
        <ele>55.509864</ele>
        <time>2026-03-20T12:01:09.680Z</time>
      </trkpt>
      <trkpt lat="52.590736" lon="8.268250">
        <ele>55.218812</ele>
        <time>2026-03-20T12:01:20.451Z</time>
      </trkpt>
      <trkpt lat="52.589735" lon="8.268399">
        <ele>53.491656</ele>
        <time>2026-03-20T12:01:50.740Z</time>
      </trkpt>
      <trkpt lat="52.588635" lon="8.268726">
        <ele>50.781478</ele>
        <time>2026-03-20T12:02:24.756Z</time>
      </trkpt>
      <trkpt lat="52.587567" lon="8.269042">
        <ele>49.741008</ele>
        <time>2026-03-20T12:03:00.025Z</time>
      </trkpt>
      <trkpt lat="52.587015" lon="8.269001">
        <ele>49.323388</ele>
        <time>2026-03-20T12:03:20.207Z</time>
      </trkpt>
      <trkpt lat="52.586575" lon="8.268907">
        <ele>49.247985</ele>
        <time>2026-03-20T12:03:37.844Z</time>
      </trkpt>
      <trkpt lat="52.585685" lon="8.268532">
        <ele>50.138395</ele>
        <time>2026-03-20T12:04:17.014Z</time>
      </trkpt>
      <trkpt lat="52.585220" lon="8.268222">
        <ele>50.624644</ele>
        <time>2026-03-20T12:04:38.229Z</time>
      </trkpt>
      <trkpt lat="52.584658" lon="8.267954">
        <ele>50.660804</ele>
        <time>2026-03-20T12:05:00.911Z</time>
      </trkpt>
      <trkpt lat="52.584597" lon="8.267920">
        <ele>50.627591</ele>
        <time>2026-03-20T12:05:02.272Z</time>
      </trkpt>
      <trkpt lat="52.583635" lon="8.267977">
        <ele>50.131165</ele>
        <time>2026-03-20T12:05:20.557Z</time>
      </trkpt>
      <trkpt lat="52.583598" lon="8.267950">
        <ele>50.110292</ele>
        <time>2026-03-20T12:05:21.310Z</time>
      </trkpt>
      <trkpt lat="52.583552" lon="8.267909">
        <ele>50.083315</ele>
        <time>2026-03-20T12:05:22.341Z</time>
      </trkpt>
      <trkpt lat="52.583424" lon="8.268521">
        <ele>49.933963</ele>
        <time>2026-03-20T12:05:30.122Z</time>
      </trkpt>
      <trkpt lat="52.583379" lon="8.268506">
        <ele>49.944379</ele>
        <time>2026-03-20T12:05:31.448Z</time>
      </trkpt>
      <trkpt lat="52.583264" lon="8.268572">
        <ele>49.972006</ele>
        <time>2026-03-20T12:05:35.714Z</time>
      </trkpt>
      <trkpt lat="52.582329" lon="8.268807">
        <ele>50.186563</ele>
        <time>2026-03-20T12:06:11.354Z</time>
      </trkpt>
      <trkpt lat="52.580180" lon="8.269126">
        <ele>51.433158</ele>
        <time>2026-03-20T12:07:38.851Z</time>
      </trkpt>
      <trkpt lat="52.579890" lon="8.269212">
        <ele>51.616547</ele>
        <time>2026-03-20T12:07:50.222Z</time>
      </trkpt>
      <trkpt lat="52.578202" lon="8.270034">
        <ele>51.669912</ele>
        <time>2026-03-20T12:08:55.439Z</time>
      </trkpt>
      <trkpt lat="52.578070" lon="8.270052">
        <ele>51.630228</ele>
        <time>2026-03-20T12:09:00.118Z</time>
      </trkpt>
      <trkpt lat="52.577672" lon="8.270107">
        <ele>51.510567</ele>
        <time>2026-03-20T12:09:14.249Z</time>
      </trkpt>
      <trkpt lat="52.577128" lon="8.270047">
        <ele>51.347217</ele>
        <time>2026-03-20T12:09:33.539Z</time>
      </trkpt>
      <trkpt lat="52.575150" lon="8.270392">
        <ele>50.790384</ele>
        <time>2026-03-20T12:10:46.184Z</time>
      </trkpt>
      <trkpt lat="52.572769" lon="8.270761">
        <ele>49.750424</ele>
        <time>2026-03-20T12:11:36.746Z</time>
      </trkpt>
      <trkpt lat="52.571185" lon="8.271093">
        <ele>50.141906</ele>
        <time>2026-03-20T12:12:38.307Z</time>
      </trkpt>
      <trkpt lat="52.568896" lon="8.272352">
        <ele>51.267734</ele>
        <time>2026-03-20T12:14:12.172Z</time>
      </trkpt>
      <trkpt lat="52.568688" lon="8.272446">
        <ele>51.400468</ele>
        <time>2026-03-20T12:14:20.340Z</time>
      </trkpt>
      <trkpt lat="52.568653" lon="8.272468">
        <ele>51.423524</ele>
        <time>2026-03-20T12:14:21.751Z</time>
      </trkpt>
      <trkpt lat="52.568256" lon="8.272720">
        <ele>51.685370</ele>
        <time>2026-03-20T12:14:38.345Z</time>
      </trkpt>
      <trkpt lat="52.567863" lon="8.273199">
        <ele>51.986337</ele>
        <time>2026-03-20T12:14:59.042Z</time>
      </trkpt>
      <trkpt lat="52.567454" lon="8.273547">
        <ele>52.110262</ele>
        <time>2026-03-20T12:15:17.444Z</time>
      </trkpt>
      <trkpt lat="52.566976" lon="8.273693">
        <ele>52.156767</ele>
        <time>2026-03-20T12:15:35.630Z</time>
      </trkpt>
      <trkpt lat="52.566436" lon="8.273762">
        <ele>52.208577</ele>
        <time>2026-03-20T12:15:55.985Z</time>
      </trkpt>
      <trkpt lat="52.566237" lon="8.273837">
        <ele>52.228106</ele>
        <time>2026-03-20T12:16:03.437Z</time>
      </trkpt>
      <trkpt lat="52.561673" lon="8.275600">
        <ele>49.728855</ele>
        <time>2026-03-20T12:18:46.188Z</time>
      </trkpt>
      <trkpt lat="52.559004" lon="8.276560">
        <ele>49.471319</ele>
        <time>2026-03-20T12:20:28.589Z</time>
      </trkpt>
      <trkpt lat="52.556669" lon="8.276990">
        <ele>48.239102</ele>
        <time>2026-03-20T12:21:51.609Z</time>
      </trkpt>
      <trkpt lat="52.554639" lon="8.277333">
        <ele>46.609822</ele>
        <time>2026-03-20T12:22:32.261Z</time>
      </trkpt>
      <trkpt lat="52.553956" lon="8.277393">
        <ele>46.205718</ele>
        <time>2026-03-20T12:22:46.701Z</time>
      </trkpt>
      <trkpt lat="52.552766" lon="8.277311">
        <ele>46.309029</ele>
        <time>2026-03-20T12:23:15.805Z</time>
      </trkpt>
      <trkpt lat="52.551557" lon="8.277198">
        <ele>46.674362</ele>
        <time>2026-03-20T12:23:46.752Z</time>
      </trkpt>
      <trkpt lat="52.549562" lon="8.277323">
        <ele>46.791273</ele>
        <time>2026-03-20T12:24:31.926Z</time>
      </trkpt>
      <trkpt lat="52.548713" lon="8.277404">
        <ele>46.973788</ele>
        <time>2026-03-20T12:24:52.729Z</time>
      </trkpt>
      <trkpt lat="52.548202" lon="8.277461">
        <ele>47.083516</ele>
        <time>2026-03-20T12:25:05.479Z</time>
      </trkpt>
      <trkpt lat="52.547608" lon="8.277653">
        <ele>47.200634</ele>
        <time>2026-03-20T12:25:20.168Z</time>
      </trkpt>
      <trkpt lat="52.547111" lon="8.277889">
        <ele>47.300715</ele>
        <time>2026-03-20T12:25:32.663Z</time>
      </trkpt>
      <trkpt lat="52.546139" lon="8.278448">
        <ele>47.656557</ele>
        <time>2026-03-20T12:25:56.858Z</time>
      </trkpt>
      <trkpt lat="52.546003" lon="8.278527">
        <ele>47.746717</ele>
        <time>2026-03-20T12:25:59.942Z</time>
      </trkpt>
      <trkpt lat="52.545645" lon="8.278747">
        <ele>47.985614</ele>
        <time>2026-03-20T12:26:08.567Z</time>
      </trkpt>
      <trkpt lat="52.545606" lon="8.278682">
        <ele>48.020325</ele>
        <time>2026-03-20T12:26:09.929Z</time>
      </trkpt>
      <trkpt lat="52.545254" lon="8.278102">
        <ele>48.331812</ele>
        <time>2026-03-20T12:26:22.990Z</time>
      </trkpt>
      <trkpt lat="52.545145" lon="8.277982">
        <ele>48.413807</ele>
        <time>2026-03-20T12:26:26.826Z</time>
      </trkpt>
      <trkpt lat="52.544761" lon="8.277964">
        <ele>48.726675</ele>
        <time>2026-03-20T12:26:38.283Z</time>
      </trkpt>
      <trkpt lat="52.544252" lon="8.277939">
        <ele>49.276748</ele>
        <time>2026-03-20T12:26:53.346Z</time>
      </trkpt>
      <trkpt lat="52.544099" lon="8.277806">
        <ele>49.463694</ele>
        <time>2026-03-20T12:26:58.715Z</time>
      </trkpt>
      <trkpt lat="52.544067" lon="8.277890">
        <ele>49.528809</ele>
        <time>2026-03-20T12:27:00.647Z</time>
      </trkpt>
      <trkpt lat="52.544062" lon="8.278225">
        <ele>49.748948</ele>
        <time>2026-03-20T12:27:07.002Z</time>
      </trkpt>
      <trkpt lat="52.544057" lon="8.278616">
        <ele>50.005866</ele>
        <time>2026-03-20T12:27:13.646Z</time>
      </trkpt>
      <trkpt lat="52.544050" lon="8.278709">
        <ele>50.067427</ele>
        <time>2026-03-20T12:27:15.167Z</time>
      </trkpt>
      <trkpt lat="52.543974" lon="8.279852">
        <ele>50.137625</ele>
        <time>2026-03-20T12:27:29.826Z</time>
      </trkpt>
      <trkpt lat="52.543892" lon="8.281295">
        <ele>49.087609</ele>
        <time>2026-03-20T12:27:46.121Z</time>
      </trkpt>
      <trkpt lat="52.543822" lon="8.282278">
        <ele>48.370554</ele>
        <time>2026-03-20T12:27:57.033Z</time>
      </trkpt>
      <trkpt lat="52.543765" lon="8.283021">
        <ele>47.602209</ele>
        <time>2026-03-20T12:28:05.259Z</time>
      </trkpt>
      <trkpt lat="52.543626" lon="8.284892">
        <ele>45.650661</ele>
        <time>2026-03-20T12:28:25.914Z</time>
      </trkpt>
      <trkpt lat="52.543423" lon="8.285731">
        <ele>44.914456</ele>
        <time>2026-03-20T12:28:35.671Z</time>
      </trkpt>
      <trkpt lat="52.543389" lon="8.285962">
        <ele>44.753214</ele>
        <time>2026-03-20T12:28:38.271Z</time>
      </trkpt>
      <trkpt lat="52.543300" lon="8.287247">
        <ele>43.875796</ele>
        <time>2026-03-20T12:28:53.103Z</time>
      </trkpt>
      <trkpt lat="52.543249" lon="8.287568">
        <ele>43.650711</ele>
        <time>2026-03-20T12:28:57.108Z</time>
      </trkpt>
      <trkpt lat="52.542909" lon="8.288831">
        <ele>43.226393</ele>
        <time>2026-03-20T12:29:15.058Z</time>
      </trkpt>
      <trkpt lat="52.542822" lon="8.289145">
        <ele>43.202147</ele>
        <time>2026-03-20T12:29:19.957Z</time>
      </trkpt>
      <trkpt lat="52.542279" lon="8.291089">
        <ele>42.925455</ele>
        <time>2026-03-20T12:29:48.977Z</time>
      </trkpt>
      <trkpt lat="52.542263" lon="8.291161">
        <ele>42.893879</ele>
        <time>2026-03-20T12:29:49.932Z</time>
      </trkpt>
      <trkpt lat="52.542242" lon="8.291121">
        <ele>42.872112</ele>
        <time>2026-03-20T12:29:50.601Z</time>
      </trkpt>
      <trkpt lat="52.542136" lon="8.291068">
        <ele>42.797073</ele>
        <time>2026-03-20T12:29:52.877Z</time>
      </trkpt>
      <trkpt lat="52.541157" lon="8.290757">
        <ele>42.121736</ele>
        <time>2026-03-20T12:30:12.356Z</time>
      </trkpt>
      <trkpt lat="52.540981" lon="8.290712">
        <ele>42.001099</ele>
        <time>2026-03-20T12:30:15.737Z</time>
      </trkpt>
      <trkpt lat="52.540886" lon="8.290724">
        <ele>41.936566</ele>
        <time>2026-03-20T12:30:17.556Z</time>
      </trkpt>
      <trkpt lat="52.539961" lon="8.290769">
        <ele>41.687890</ele>
        <time>2026-03-20T12:30:36.137Z</time>
      </trkpt>
      <trkpt lat="52.539664" lon="8.290819">
        <ele>41.624737</ele>
        <time>2026-03-20T12:30:42.735Z</time>
      </trkpt>
      <trkpt lat="52.539174" lon="8.290976">
        <ele>41.519139</ele>
        <time>2026-03-20T12:30:54.371Z</time>
      </trkpt>
      <trkpt lat="52.538493" lon="8.291389">
        <ele>41.548555</ele>
        <time>2026-03-20T12:31:11.705Z</time>
      </trkpt>
      <trkpt lat="52.537801" lon="8.291987">
        <ele>41.649658</ele>
        <time>2026-03-20T12:31:29.877Z</time>
      </trkpt>
      <trkpt lat="52.536984" lon="8.292882">
        <ele>41.346553</ele>
        <time>2026-03-20T12:31:50.894Z</time>
      </trkpt>
      <trkpt lat="52.536476" lon="8.293518">
        <ele>40.881683</ele>
        <time>2026-03-20T12:32:03.548Z</time>
      </trkpt>
      <trkpt lat="52.536320" lon="8.293624">
        <ele>40.758792</ele>
        <time>2026-03-20T12:32:06.812Z</time>
      </trkpt>
      <trkpt lat="52.536187" lon="8.293826">
        <ele>40.626968</ele>
        <time>2026-03-20T12:32:10.327Z</time>
      </trkpt>
      <trkpt lat="52.535613" lon="8.294338">
        <ele>40.132528</ele>
        <time>2026-03-20T12:32:22.570Z</time>
      </trkpt>
      <trkpt lat="52.535325" lon="8.294518">
        <ele>39.891214</ele>
        <time>2026-03-20T12:32:28.360Z</time>
      </trkpt>
      <trkpt lat="52.535227" lon="8.294456">
        <ele>39.808973</ele>
        <time>2026-03-20T12:32:30.354Z</time>
      </trkpt>
      <trkpt lat="52.535185" lon="8.294467">
        <ele>39.775663</ele>
        <time>2026-03-20T12:32:31.147Z</time>
      </trkpt>
      <trkpt lat="52.535133" lon="8.294495">
        <ele>39.732807</ele>
        <time>2026-03-20T12:32:32.198Z</time>
      </trkpt>
      <trkpt lat="52.535174" lon="8.294682">
        <ele>39.638109</ele>
        <time>2026-03-20T12:32:34.521Z</time>
      </trkpt>
      <trkpt lat="52.535206" lon="8.294827">
        <ele>39.564624</ele>
        <time>2026-03-20T12:32:36.365Z</time>
      </trkpt>
      <trkpt lat="52.535228" lon="8.294949">
        <ele>39.504003</ele>
        <time>2026-03-20T12:32:37.884Z</time>
      </trkpt>
      <trkpt lat="52.535066" lon="8.294912">
        <ele>39.375905</ele>
        <time>2026-03-20T12:32:41.179Z</time>
      </trkpt>
      <trkpt lat="52.534910" lon="8.294927">
        <ele>39.253515</ele>
        <time>2026-03-20T12:32:44.400Z</time>
      </trkpt>
      <trkpt lat="52.532438" lon="8.295503">
        <ele>39.104324</ele>
        <time>2026-03-20T12:33:40.639Z</time>
      </trkpt>
      <trkpt lat="52.531619" lon="8.295725">
        <ele>39.151808</ele>
        <time>2026-03-20T12:33:59.911Z</time>
      </trkpt>
      <trkpt lat="52.531185" lon="8.295859">
        <ele>39.177069</ele>
        <time>2026-03-20T12:34:09.655Z</time>
      </trkpt>
      <trkpt lat="52.530041" lon="8.296165">
        <ele>38.780419</ele>
        <time>2026-03-20T12:34:34.115Z</time>
      </trkpt>
      <trkpt lat="52.529671" lon="8.296220">
        <ele>38.629372</ele>
        <time>2026-03-20T12:34:41.815Z</time>
      </trkpt>
      <trkpt lat="52.528636" lon="8.296275">
        <ele>38.225157</ele>
        <time>2026-03-20T12:35:02.858Z</time>
      </trkpt>
      <trkpt lat="52.528597" lon="8.296320">
        <ele>38.207104</ele>
        <time>2026-03-20T12:35:03.815Z</time>
      </trkpt>
      <trkpt lat="52.528580" lon="8.296375">
        <ele>38.192885</ele>
        <time>2026-03-20T12:35:04.563Z</time>
      </trkpt>
      <trkpt lat="52.528598" lon="8.297461">
        <ele>37.942484</ele>
        <time>2026-03-20T12:35:17.987Z</time>
      </trkpt>
      <trkpt lat="52.528900" lon="8.308062">
        <ele>38.403397</ele>
        <time>2026-03-20T12:37:43.767Z</time>
      </trkpt>
      <trkpt lat="52.528885" lon="8.308063">
        <ele>38.408952</ele>
        <time>2026-03-20T12:37:44.134Z</time>
      </trkpt>
      <trkpt lat="52.528896" lon="8.308414">
        <ele>38.488079</ele>
        <time>2026-03-20T12:37:52.600Z</time>
      </trkpt>
      <trkpt lat="52.528901" lon="8.308581">
        <ele>38.525721</ele>
        <time>2026-03-20T12:37:55.879Z</time>
      </trkpt>
      <trkpt lat="52.528911" lon="8.308843">
        <ele>38.584822</ele>
        <time>2026-03-20T12:38:01.056Z</time>
      </trkpt>
      <trkpt lat="52.528927" lon="8.308928">
        <ele>38.604853</ele>
        <time>2026-03-20T12:38:02.791Z</time>
      </trkpt>
      <trkpt lat="52.528971" lon="8.309214">
        <ele>38.671268</ele>
        <time>2026-03-20T12:38:08.771Z</time>
      </trkpt>
      <trkpt lat="52.529002" lon="8.309857">
        <ele>38.816481</ele>
        <time>2026-03-20T12:38:21.140Z</time>
      </trkpt>
      <trkpt lat="52.529009" lon="8.310011">
        <ele>38.832530</ele>
        <time>2026-03-20T12:38:24.048Z</time>
      </trkpt>
      <trkpt lat="52.529018" lon="8.310184">
        <ele>38.795702</ele>
        <time>2026-03-20T12:38:27.055Z</time>
      </trkpt>
      <trkpt lat="52.529031" lon="8.310614">
        <ele>38.704382</ele>
        <time>2026-03-20T12:38:34.406Z</time>
      </trkpt>
      <trkpt lat="52.529043" lon="8.310993">
        <ele>38.623884</ele>
        <time>2026-03-20T12:38:40.657Z</time>
      </trkpt>
      <trkpt lat="52.529051" lon="8.311253">
        <ele>38.568666</ele>
        <time>2026-03-20T12:38:44.929Z</time>
      </trkpt>
      <trkpt lat="52.529062" lon="8.311687">
        <ele>38.476531</ele>
        <time>2026-03-20T12:38:52.077Z</time>
      </trkpt>
      <trkpt lat="52.528729" lon="8.311660">
        <ele>38.360287</ele>
        <time>2026-03-20T12:38:59.036Z</time>
      </trkpt>
      <trkpt lat="52.528365" lon="8.311531">
        <ele>38.230460</ele>
        <time>2026-03-20T12:39:06.657Z</time>
      </trkpt>
      <trkpt lat="52.527963" lon="8.311204">
        <ele>37.985546</ele>
        <time>2026-03-20T12:39:16.028Z</time>
      </trkpt>
      <trkpt lat="52.527594" lon="8.310954">
        <ele>37.758662</ele>
        <time>2026-03-20T12:39:24.626Z</time>
      </trkpt>
      <trkpt lat="52.527273" lon="8.310891">
        <ele>37.574888</ele>
        <time>2026-03-20T12:39:36.116Z</time>
      </trkpt>
      <trkpt lat="52.527119" lon="8.312416">
        <ele>37.058786</ele>
        <time>2026-03-20T12:39:56.745Z</time>
      </trkpt>
      <trkpt lat="52.526799" lon="8.312881">
        <ele>36.845625</ele>
        <time>2026-03-20T12:40:05.940Z</time>
      </trkpt>
      <trkpt lat="52.526708" lon="8.313443">
        <ele>36.669047</ele>
        <time>2026-03-20T12:40:13.651Z</time>
      </trkpt>
      <trkpt lat="52.526607" lon="8.314177">
        <ele>36.440556</ele>
        <time>2026-03-20T12:40:24.257Z</time>
      </trkpt>
      <trkpt lat="52.526708" lon="8.313443">
        <ele>36.415998</ele>
        <time>2026-03-20T12:40:36.379Z</time>
      </trkpt>
      <trkpt lat="52.526799" lon="8.312881">
        <ele>36.676804</ele>
        <time>2026-03-20T12:40:46.482Z</time>
      </trkpt>
      <trkpt lat="52.527119" lon="8.312416">
        <ele>36.991643</ele>
        <time>2026-03-20T12:40:58.920Z</time>
      </trkpt>
      <trkpt lat="52.527273" lon="8.310891">
        <ele>37.624527</ele>
        <time>2026-03-20T12:41:25.820Z</time>
      </trkpt>
      <trkpt lat="52.524605" lon="8.310427">
        <ele>37.488066</ele>
        <time>2026-03-20T12:43:03.964Z</time>
      </trkpt>
      <trkpt lat="52.523240" lon="8.310193">
        <ele>37.128082</ele>
        <time>2026-03-20T12:43:52.950Z</time>
      </trkpt>
      <trkpt lat="52.521614" lon="8.310207">
        <ele>36.698837</ele>
        <time>2026-03-20T12:44:51.314Z</time>
      </trkpt>
      <trkpt lat="52.520330" lon="8.310216">
        <ele>36.583305</ele>
        <time>2026-03-20T12:45:38.759Z</time>
      </trkpt>
      <trkpt lat="52.515673" lon="8.309875">
        <ele>37.387708</ele>
        <time>2026-03-20T12:48:35.155Z</time>
      </trkpt>
      <trkpt lat="52.514460" lon="8.309749">
        <ele>37.602550</ele>
        <time>2026-03-20T12:49:21.038Z</time>
      </trkpt>
      <trkpt lat="52.513956" lon="8.309321">
        <ele>37.698469</ele>
        <time>2026-03-20T12:49:42.427Z</time>
      </trkpt>
      <trkpt lat="52.513079" lon="8.308240">
        <ele>37.855487</ele>
        <time>2026-03-20T12:50:23.796Z</time>
      </trkpt>
      <trkpt lat="52.512067" lon="8.307133">
        <ele>37.892657</ele>
        <time>2026-03-20T12:51:09.191Z</time>
      </trkpt>
      <trkpt lat="52.511577" lon="8.306796">
        <ele>37.874200</ele>
        <time>2026-03-20T12:51:28.616Z</time>
      </trkpt>
      <trkpt lat="52.509253" lon="8.306918">
        <ele>37.603850</ele>
        <time>2026-03-20T12:52:52.720Z</time>
      </trkpt>
      <trkpt lat="52.508615" lon="8.307088">
        <ele>37.654052</ele>
        <time>2026-03-20T12:53:17.180Z</time>
      </trkpt>
      <trkpt lat="52.508120" lon="8.307553">
        <ele>37.705139</ele>
        <time>2026-03-20T12:53:39.147Z</time>
      </trkpt>
      <trkpt lat="52.507718" lon="8.307832">
        <ele>37.769512</ele>
        <time>2026-03-20T12:53:50.560Z</time>
      </trkpt>
      <trkpt lat="52.507448" lon="8.307812">
        <ele>37.809380</ele>
        <time>2026-03-20T12:53:57.552Z</time>
      </trkpt>
      <trkpt lat="52.506396" lon="8.307225">
        <ele>37.933814</ele>
        <time>2026-03-20T12:54:25.021Z</time>
      </trkpt>
      <trkpt lat="52.505273" lon="8.306719">
        <ele>37.710846</ele>
        <time>2026-03-20T12:54:52.699Z</time>
      </trkpt>
      <trkpt lat="52.505083" lon="8.306667">
        <ele>37.673964</ele>
        <time>2026-03-20T12:54:57.271Z</time>
      </trkpt>
      <trkpt lat="52.501831" lon="8.305782">
        <ele>37.429951</ele>
        <time>2026-03-20T12:56:17.931Z</time>
      </trkpt>
      <trkpt lat="52.501240" lon="8.305684">
        <ele>37.409084</ele>
        <time>2026-03-20T12:56:32.616Z</time>
      </trkpt>
      <trkpt lat="52.497643" lon="8.305977">
        <ele>37.457281</ele>
        <time>2026-03-20T12:58:01.895Z</time>
      </trkpt>
      <trkpt lat="52.497114" lon="8.306076">
        <ele>37.379872</ele>
        <time>2026-03-20T12:58:14.875Z</time>
      </trkpt>
      <trkpt lat="52.496623" lon="8.306282">
        <ele>37.302001</ele>
        <time>2026-03-20T12:58:27.088Z</time>
      </trkpt>
      <trkpt lat="52.494543" lon="8.307280">
        <ele>36.902400</ele>
        <time>2026-03-20T12:59:18.652Z</time>
      </trkpt>
      <trkpt lat="52.494313" lon="8.307571">
        <ele>36.843766</ele>
        <time>2026-03-20T12:59:25.740Z</time>
      </trkpt>
      <trkpt lat="52.494127" lon="8.307947">
        <ele>36.812013</ele>
        <time>2026-03-20T12:59:33.023Z</time>
      </trkpt>
      <trkpt lat="52.493663" lon="8.310275">
        <ele>36.760550</ele>
        <time>2026-03-20T13:00:09.896Z</time>
      </trkpt>
      <trkpt lat="52.493578" lon="8.310414">
        <ele>36.756411</ele>
        <time>2026-03-20T13:00:12.803Z</time>
      </trkpt>
      <trkpt lat="52.493472" lon="8.310460">
        <ele>36.735939</ele>
        <time>2026-03-20T13:00:15.433Z</time>
      </trkpt>
      <trkpt lat="52.493333" lon="8.310409">
        <ele>36.704158</ele>
        <time>2026-03-20T13:00:18.864Z</time>
      </trkpt>
      <trkpt lat="52.493231" lon="8.310268">
        <ele>36.674408</ele>
        <time>2026-03-20T13:00:22.052Z</time>
      </trkpt>
      <trkpt lat="52.493130" lon="8.309953">
        <ele>36.626040</ele>
        <time>2026-03-20T13:00:27.228Z</time>
      </trkpt>
      <trkpt lat="52.492824" lon="8.308778">
        <ele>36.452410</ele>
        <time>2026-03-20T13:00:45.600Z</time>
      </trkpt>
      <trkpt lat="52.492751" lon="8.308594">
        <ele>36.422572</ele>
        <time>2026-03-20T13:00:48.776Z</time>
      </trkpt>
      <trkpt lat="52.492703" lon="8.308599">
        <ele>36.411840</ele>
        <time>2026-03-20T13:00:49.920Z</time>
      </trkpt>
      <trkpt lat="52.492658" lon="8.308646">
        <ele>36.399940</ele>
        <time>2026-03-20T13:00:51.846Z</time>
      </trkpt>
      <trkpt lat="52.492389" lon="8.308927">
        <ele>36.337706</ele>
        <time>2026-03-20T13:01:03.421Z</time>
      </trkpt>
      <trkpt lat="52.492363" lon="8.308943">
        <ele>36.333672</ele>
        <time>2026-03-20T13:01:04.017Z</time>
      </trkpt>
      <trkpt lat="52.492284" lon="8.308822">
        <ele>36.317977</ele>
        <time>2026-03-20T13:01:06.338Z</time>
      </trkpt>
      <trkpt lat="52.491654" lon="8.308184">
        <ele>36.210443</ele>
        <time>2026-03-20T13:01:22.323Z</time>
      </trkpt>
      <trkpt lat="52.491421" lon="8.308148">
        <ele>36.176441</ele>
        <time>2026-03-20T13:01:27.405Z</time>
      </trkpt>
      <trkpt lat="52.491247" lon="8.307959">
        <ele>36.146132</ele>
        <time>2026-03-20T13:01:31.963Z</time>
      </trkpt>
      <trkpt lat="52.489592" lon="8.310715">
        <ele>36.043938</ele>
        <time>2026-03-20T13:02:24.044Z</time>
      </trkpt>
      <trkpt lat="52.489460" lon="8.311022">
        <ele>36.068439</ele>
        <time>2026-03-20T13:02:29.163Z</time>
      </trkpt>
      <trkpt lat="52.489472" lon="8.311084">
        <ele>36.072680</ele>
        <time>2026-03-20T13:02:30.045Z</time>
      </trkpt>
      <trkpt lat="52.489291" lon="8.312955">
        <ele>36.196186</ele>
        <time>2026-03-20T13:02:56.169Z</time>
      </trkpt>
      <trkpt lat="52.487901" lon="8.327310">
        <ele>37.259695</ele>
        <time>2026-03-20T13:06:17.529Z</time>
      </trkpt>
      <trkpt lat="52.487866" lon="8.328087">
        <ele>37.298450</ele>
        <time>2026-03-20T13:06:27.994Z</time>
      </trkpt>
      <trkpt lat="52.487864" lon="8.328222">
        <ele>37.302408</ele>
        <time>2026-03-20T13:06:29.799Z</time>
      </trkpt>
      <trkpt lat="52.487862" lon="8.328562">
        <ele>37.312373</ele>
        <time>2026-03-20T13:06:34.392Z</time>
      </trkpt>
      <trkpt lat="52.487907" lon="8.328562">
        <ele>37.314539</ele>
        <time>2026-03-20T13:06:35.535Z</time>
      </trkpt>
      <trkpt lat="52.487862" lon="8.328562">
        <ele>37.316705</ele>
        <time>2026-03-20T13:06:36.636Z</time>
      </trkpt>
      <trkpt lat="52.487851" lon="8.330932">
        <ele>37.380808</ele>
        <time>2026-03-20T13:07:09.307Z</time>
      </trkpt>
      <trkpt lat="52.487838" lon="8.334710">
        <ele>37.578499</ele>
        <time>2026-03-20T13:08:00.671Z</time>
      </trkpt>
      <trkpt lat="52.487969" lon="8.335515">
        <ele>37.706621</ele>
        <time>2026-03-20T13:08:12.894Z</time>
      </trkpt>
      <trkpt lat="52.487993" lon="8.335676">
        <ele>37.732107</ele>
        <time>2026-03-20T13:08:15.343Z</time>
      </trkpt>
      <trkpt lat="52.488015" lon="8.335811">
        <ele>37.753596</ele>
        <time>2026-03-20T13:08:17.384Z</time>
      </trkpt>
      <trkpt lat="52.488238" lon="8.337203">
        <ele>37.874465</ele>
        <time>2026-03-20T13:08:37.791Z</time>
      </trkpt>
      <trkpt lat="52.488393" lon="8.338154">
        <ele>37.890531</ele>
        <time>2026-03-20T13:08:51.199Z</time>
      </trkpt>
      <trkpt lat="52.488402" lon="8.338332">
        <ele>37.893446</ele>
        <time>2026-03-20T13:08:53.541Z</time>
      </trkpt>
      <trkpt lat="52.487926" lon="8.346839">
        <ele>37.415775</ele>
        <time>2026-03-20T13:10:46.618Z</time>
      </trkpt>
      <trkpt lat="52.487892" lon="8.347139">
        <ele>37.413197</ele>
        <time>2026-03-20T13:10:50.762Z</time>
      </trkpt>
      <trkpt lat="52.487499" lon="8.349274">
        <ele>37.660514</ele>
        <time>2026-03-20T13:11:21.880Z</time>
      </trkpt>
      <trkpt lat="52.487599" lon="8.349460">
        <ele>37.715489</ele>
        <time>2026-03-20T13:11:25.409Z</time>
      </trkpt>
      <trkpt lat="52.487737" lon="8.349802">
        <ele>37.806390</ele>
        <time>2026-03-20T13:11:31.427Z</time>
      </trkpt>
      <trkpt lat="52.488018" lon="8.350530">
        <ele>37.997363</ele>
        <time>2026-03-20T13:11:44.205Z</time>
      </trkpt>
      <trkpt lat="52.488092" lon="8.350717">
        <ele>38.046776</ele>
        <time>2026-03-20T13:11:47.543Z</time>
      </trkpt>
      <trkpt lat="52.488300" lon="8.351234">
        <ele>38.217950</ele>
        <time>2026-03-20T13:11:56.639Z</time>
      </trkpt>
      <trkpt lat="52.488665" lon="8.351431">
        <ele>38.395492</ele>
        <time>2026-03-20T13:12:05.815Z</time>
      </trkpt>
      <trkpt lat="52.489520" lon="8.352062">
        <ele>38.828648</ele>
        <time>2026-03-20T13:12:28.627Z</time>
      </trkpt>
      <trkpt lat="52.490195" lon="8.352837">
        <ele>39.305620</ele>
        <time>2026-03-20T13:12:47.871Z</time>
      </trkpt>
      <trkpt lat="52.490465" lon="8.353041">
        <ele>39.484390</ele>
        <time>2026-03-20T13:12:55.273Z</time>
      </trkpt>
      <trkpt lat="52.490589" lon="8.353304">
        <ele>39.606216</ele>
        <time>2026-03-20T13:13:00.429Z</time>
      </trkpt>
      <trkpt lat="52.490626" lon="8.353514">
        <ele>39.686284</ele>
        <time>2026-03-20T13:13:03.838Z</time>
      </trkpt>
      <trkpt lat="52.490769" lon="8.354820">
        <ele>40.111398</ele>
        <time>2026-03-20T13:13:24.503Z</time>
      </trkpt>
      <trkpt lat="52.490783" lon="8.354939">
        <ele>40.142319</ele>
        <time>2026-03-20T13:13:26.385Z</time>
      </trkpt>
      <trkpt lat="52.491111" lon="8.356011">
        <ele>40.448400</ele>
        <time>2026-03-20T13:13:44.230Z</time>
      </trkpt>
      <trkpt lat="52.491146" lon="8.356074">
        <ele>40.470157</ele>
        <time>2026-03-20T13:13:45.437Z</time>
      </trkpt>
      <trkpt lat="52.491253" lon="8.356238">
        <ele>40.531480</ele>
        <time>2026-03-20T13:13:48.791Z</time>
      </trkpt>
      <trkpt lat="52.491354" lon="8.356288">
        <ele>40.575680</ele>
        <time>2026-03-20T13:13:51.154Z</time>
      </trkpt>
      <trkpt lat="52.491468" lon="8.356280">
        <ele>40.623489</ele>
        <time>2026-03-20T13:13:53.681Z</time>
      </trkpt>
      <trkpt lat="52.491977" lon="8.356116">
        <ele>40.842488</ele>
        <time>2026-03-20T13:14:04.975Z</time>
      </trkpt>
      <trkpt lat="52.492140" lon="8.356088">
        <ele>40.912146</ele>
        <time>2026-03-20T13:14:08.508Z</time>
      </trkpt>
      <trkpt lat="52.492476" lon="8.356101">
        <ele>41.054996</ele>
        <time>2026-03-20T13:14:16.161Z</time>
      </trkpt>
      <trkpt lat="52.493133" lon="8.356166">
        <ele>41.334746</ele>
        <time>2026-03-20T13:14:32.584Z</time>
      </trkpt>
      <trkpt lat="52.493324" lon="8.356188">
        <ele>41.416126</ele>
        <time>2026-03-20T13:14:37.305Z</time>
      </trkpt>
      <trkpt lat="52.493569" lon="8.356216">
        <ele>41.532395</ele>
        <time>2026-03-20T13:14:43.517Z</time>
      </trkpt>
      <trkpt lat="52.493700" lon="8.356247">
        <ele>41.610369</ele>
        <time>2026-03-20T13:14:46.903Z</time>
      </trkpt>
      <trkpt lat="52.494276" lon="8.356422">
        <ele>41.955471</ele>
        <time>2026-03-20T13:15:02.592Z</time>
      </trkpt>
      <trkpt lat="52.494867" lon="8.356629">
        <ele>42.311482</ele>
        <time>2026-03-20T13:15:18.128Z</time>
      </trkpt>
      <trkpt lat="52.495386" lon="8.356976">
        <ele>42.387858</ele>
        <time>2026-03-20T13:15:30.436Z</time>
      </trkpt>
      <trkpt lat="52.495728" lon="8.357093">
        <ele>42.027389</ele>
        <time>2026-03-20T13:15:37.494Z</time>
      </trkpt>
      <trkpt lat="52.496543" lon="8.357272">
        <ele>41.178939</ele>
        <time>2026-03-20T13:15:52.694Z</time>
      </trkpt>
      <trkpt lat="52.497224" lon="8.357360">
        <ele>40.578207</ele>
        <time>2026-03-20T13:16:05.173Z</time>
      </trkpt>
      <trkpt lat="52.497807" lon="8.357472">
        <ele>40.260051</ele>
        <time>2026-03-20T13:16:16.786Z</time>
      </trkpt>
      <trkpt lat="52.497867" lon="8.357482">
        <ele>40.227363</ele>
        <time>2026-03-20T13:16:18.028Z</time>
      </trkpt>
      <trkpt lat="52.498163" lon="8.357536">
        <ele>40.065936</ele>
        <time>2026-03-20T13:16:24.339Z</time>
      </trkpt>
      <trkpt lat="52.499162" lon="8.357856">
        <ele>39.751181</ele>
        <time>2026-03-20T13:16:47.122Z</time>
      </trkpt>
      <trkpt lat="52.500311" lon="8.358597">
        <ele>39.858142</ele>
        <time>2026-03-20T13:17:15.274Z</time>
      </trkpt>
      <trkpt lat="52.500577" lon="8.358866">
        <ele>39.801709</ele>
        <time>2026-03-20T13:17:22.349Z</time>
      </trkpt>
      <trkpt lat="52.500610" lon="8.358900">
        <ele>39.779057</ele>
        <time>2026-03-20T13:17:23.223Z</time>
      </trkpt>
      <trkpt lat="52.500701" lon="8.358987">
        <ele>39.717829</ele>
        <time>2026-03-20T13:17:25.537Z</time>
      </trkpt>
      <trkpt lat="52.500854" lon="8.359064">
        <ele>39.624775</ele>
        <time>2026-03-20T13:17:28.982Z</time>
      </trkpt>
      <trkpt lat="52.501241" lon="8.359002">
        <ele>39.398659</ele>
        <time>2026-03-20T13:17:37.050Z</time>
      </trkpt>
      <trkpt lat="52.501389" lon="8.358994">
        <ele>39.312547</ele>
        <time>2026-03-20T13:17:40.019Z</time>
      </trkpt>
      <trkpt lat="52.501506" lon="8.359031">
        <ele>39.243260</ele>
        <time>2026-03-20T13:17:42.374Z</time>
      </trkpt>
      <trkpt lat="52.502235" lon="8.359719">
        <ele>38.741347</ele>
        <time>2026-03-20T13:17:58.513Z</time>
      </trkpt>
      <trkpt lat="52.502580" lon="8.360049">
        <ele>38.468432</ele>
        <time>2026-03-20T13:18:06.138Z</time>
      </trkpt>
      <trkpt lat="52.503424" lon="8.360855">
        <ele>37.801053</ele>
        <time>2026-03-20T13:18:25.844Z</time>
      </trkpt>
      <trkpt lat="52.503453" lon="8.360883">
        <ele>37.778057</ele>
        <time>2026-03-20T13:18:26.566Z</time>
      </trkpt>
      <trkpt lat="52.506518" lon="8.363825">
        <ele>37.085496</ele>
        <time>2026-03-20T13:19:43.107Z</time>
      </trkpt>
      <trkpt lat="52.506528" lon="8.363740">
        <ele>37.079615</ele>
        <time>2026-03-20T13:19:44.244Z</time>
      </trkpt>
      <trkpt lat="52.506799" lon="8.362015">
        <ele>37.271270</ele>
        <time>2026-03-20T13:20:08.750Z</time>
      </trkpt>
      <trkpt lat="52.506875" lon="8.361517">
        <ele>37.354483</ele>
        <time>2026-03-20T13:20:16.161Z</time>
      </trkpt>
      <trkpt lat="52.506996" lon="8.360815">
        <ele>37.472736</ele>
        <time>2026-03-20T13:20:26.872Z</time>
      </trkpt>
      <trkpt lat="52.507095" lon="8.360523">
        <ele>37.526910</ele>
        <time>2026-03-20T13:20:31.864Z</time>
      </trkpt>
      <trkpt lat="52.507090" lon="8.360425">
        <ele>37.541532</ele>
        <time>2026-03-20T13:20:33.356Z</time>
      </trkpt>
      <trkpt lat="52.507031" lon="8.360277">
        <ele>37.567290</ele>
        <time>2026-03-20T13:20:36.006Z</time>
      </trkpt>
      <trkpt lat="52.506883" lon="8.359905">
        <ele>37.631997</ele>
        <time>2026-03-20T13:20:42.591Z</time>
      </trkpt>
      <trkpt lat="52.506654" lon="8.359509">
        <ele>37.711527</ele>
        <time>2026-03-20T13:20:50.553Z</time>
      </trkpt>
      <trkpt lat="52.506316" lon="8.359106">
        <ele>37.811427</ele>
        <time>2026-03-20T13:21:00.285Z</time>
      </trkpt>
      <trkpt lat="52.506123" lon="8.358677">
        <ele>37.889099</ele>
        <time>2026-03-20T13:21:07.615Z</time>
      </trkpt>
      <trkpt lat="52.505961" lon="8.358178">
        <ele>37.956218</ele>
        <time>2026-03-20T13:21:15.234Z</time>
      </trkpt>
      <trkpt lat="52.505457" lon="8.357453">
        <ele>37.900606</ele>
        <time>2026-03-20T13:21:29.579Z</time>
      </trkpt>
      <trkpt lat="52.505333" lon="8.357312">
        <ele>37.888087</ele>
        <time>2026-03-20T13:21:32.783Z</time>
      </trkpt>
      <trkpt lat="52.504699" lon="8.356927">
        <ele>37.831975</ele>
        <time>2026-03-20T13:21:47.442Z</time>
      </trkpt>
      <trkpt lat="52.504478" lon="8.356892">
        <ele>37.813543</ele>
        <time>2026-03-20T13:21:52.434Z</time>
      </trkpt>
      <trkpt lat="52.504204" lon="8.356941">
        <ele>37.851814</ele>
        <time>2026-03-20T13:21:58.780Z</time>
      </trkpt>
      <trkpt lat="52.503213" lon="8.357219">
        <ele>38.021487</ele>
        <time>2026-03-20T13:22:22.246Z</time>
      </trkpt>
      <trkpt lat="52.502895" lon="8.357243">
        <ele>38.075213</ele>
        <time>2026-03-20T13:22:29.815Z</time>
      </trkpt>
      <trkpt lat="52.503057" lon="8.354784">
        <ele>37.829961</ele>
        <time>2026-03-20T13:23:02.649Z</time>
      </trkpt>
      <trkpt lat="52.503107" lon="8.354018">
        <ele>37.725225</ele>
        <time>2026-03-20T13:23:12.130Z</time>
      </trkpt>
      <trkpt lat="52.503086" lon="8.353949">
        <ele>37.714737</ele>
        <time>2026-03-20T13:23:13.073Z</time>
      </trkpt>
      <trkpt lat="52.502965" lon="8.353884">
        <ele>37.692588</ele>
        <time>2026-03-20T13:23:15.641Z</time>
      </trkpt>
      <trkpt lat="52.503011" lon="8.353469">
        <ele>37.648907</ele>
        <time>2026-03-20T13:23:22.551Z</time>
      </trkpt>
      <trkpt lat="52.509861" lon="8.356657">
        <ele>36.493100</ele>
        <time>2026-03-20T13:25:57.056Z</time>
      </trkpt>
      <trkpt lat="52.510001" lon="8.356762">
        <ele>36.476701</ele>
        <time>2026-03-20T13:26:00.435Z</time>
      </trkpt>
      <trkpt lat="52.510014" lon="8.356772">
        <ele>36.475171</ele>
        <time>2026-03-20T13:26:00.754Z</time>
      </trkpt>
      <trkpt lat="52.510170" lon="8.356952">
        <ele>36.454858</ele>
        <time>2026-03-20T13:26:04.898Z</time>
      </trkpt>
      <trkpt lat="52.510723" lon="8.357875">
        <ele>36.370860</ele>
        <time>2026-03-20T13:26:22.016Z</time>
      </trkpt>
      <trkpt lat="52.510828" lon="8.358105">
        <ele>36.352213</ele>
        <time>2026-03-20T13:26:25.849Z</time>
      </trkpt>
      <trkpt lat="52.510882" lon="8.358291">
        <ele>36.338848</ele>
        <time>2026-03-20T13:26:28.598Z</time>
      </trkpt>
      <trkpt lat="52.510943" lon="8.358732">
        <ele>36.364495</ele>
        <time>2026-03-20T13:26:34.620Z</time>
      </trkpt>
      <trkpt lat="52.511065" lon="8.365123">
        <ele>37.087246</ele>
        <time>2026-03-20T13:28:04.201Z</time>
      </trkpt>
      <trkpt lat="52.511096" lon="8.365366">
        <ele>37.133824</ele>
        <time>2026-03-20T13:28:07.961Z</time>
      </trkpt>
      <trkpt lat="52.511189" lon="8.365778">
        <ele>37.216261</ele>
        <time>2026-03-20T13:28:14.568Z</time>
      </trkpt>
      <trkpt lat="52.511345" lon="8.366025">
        <ele>37.283041</ele>
        <time>2026-03-20T13:28:19.867Z</time>
      </trkpt>
      <trkpt lat="52.511504" lon="8.366143">
        <ele>37.336820</ele>
        <time>2026-03-20T13:28:24.095Z</time>
      </trkpt>
      <trkpt lat="52.511615" lon="8.366184">
        <ele>37.371889</ele>
        <time>2026-03-20T13:28:26.828Z</time>
      </trkpt>
      <trkpt lat="52.511866" lon="8.366165">
        <ele>37.449341</ele>
        <time>2026-03-20T13:28:32.843Z</time>
      </trkpt>
      <trkpt lat="52.514443" lon="8.365372">
        <ele>37.183332</ele>
        <time>2026-03-20T13:29:29.048Z</time>
      </trkpt>
      <trkpt lat="52.514995" lon="8.365201">
        <ele>37.141365</ele>
        <time>2026-03-20T13:29:41.290Z</time>
      </trkpt>
      <trkpt lat="52.515694" lon="8.364966">
        <ele>37.132061</ele>
        <time>2026-03-20T13:30:02.617Z</time>
      </trkpt>
      <trkpt lat="52.516041" lon="8.364766">
        <ele>37.188009</ele>
        <time>2026-03-20T13:30:13.755Z</time>
      </trkpt>
      <trkpt lat="52.516447" lon="8.364533">
        <ele>37.253439</ele>
        <time>2026-03-20T13:30:26.781Z</time>
      </trkpt>
      <trkpt lat="52.517202" lon="8.364081">
        <ele>37.375695</ele>
        <time>2026-03-20T13:30:50.592Z</time>
      </trkpt>
      <trkpt lat="52.517476" lon="8.363920">
        <ele>37.397833</ele>
        <time>2026-03-20T13:30:59.051Z</time>
      </trkpt>
      <trkpt lat="52.517651" lon="8.363816">
        <ele>37.411824</ele>
        <time>2026-03-20T13:31:04.457Z</time>
      </trkpt>
      <trkpt lat="52.519889" lon="8.362496">
        <ele>37.652510</ele>
        <time>2026-03-20T13:32:14.986Z</time>
      </trkpt>
      <trkpt lat="52.520063" lon="8.362528">
        <ele>37.675970</ele>
        <time>2026-03-20T13:32:20.308Z</time>
      </trkpt>
      <trkpt lat="52.520138" lon="8.362619">
        <ele>37.688461</ele>
        <time>2026-03-20T13:32:23.138Z</time>
      </trkpt>
      <trkpt lat="52.520337" lon="8.363116">
        <ele>37.736967</ele>
        <time>2026-03-20T13:32:34.047Z</time>
      </trkpt>
      <trkpt lat="52.520464" lon="8.363165">
        <ele>37.749930</ele>
        <time>2026-03-20T13:32:37.963Z</time>
      </trkpt>
      <trkpt lat="52.520477" lon="8.363157">
        <ele>37.747606</ele>
        <time>2026-03-20T13:32:38.384Z</time>
      </trkpt>
      <trkpt lat="52.520591" lon="8.363084">
        <ele>37.727123</ele>
        <time>2026-03-20T13:32:41.169Z</time>
      </trkpt>
      <trkpt lat="52.520618" lon="8.363064">
        <ele>37.722164</ele>
        <time>2026-03-20T13:32:42.040Z</time>
      </trkpt>
      <trkpt lat="52.520724" lon="8.362646">
        <ele>37.676033</ele>
        <time>2026-03-20T13:32:50.156Z</time>
      </trkpt>
      <trkpt lat="52.520679" lon="8.362046">
        <ele>37.614449</ele>
        <time>2026-03-20T13:33:00.728Z</time>
      </trkpt>
      <trkpt lat="52.520709" lon="8.361986">
        <ele>37.606537</ele>
        <time>2026-03-20T13:33:02.083Z</time>
      </trkpt>
      <trkpt lat="52.521748" lon="8.361043">
        <ele>37.442027</ele>
        <time>2026-03-20T13:33:35.115Z</time>
      </trkpt>
      <trkpt lat="52.521879" lon="8.360923">
        <ele>37.436665</ele>
        <time>2026-03-20T13:33:39.330Z</time>
      </trkpt>
      <trkpt lat="52.522843" lon="8.360022">
        <ele>37.397017</ele>
        <time>2026-03-20T13:34:11.737Z</time>
      </trkpt>
      <trkpt lat="52.523138" lon="8.359815">
        <ele>37.386776</ele>
        <time>2026-03-20T13:34:21.664Z</time>
      </trkpt>
      <trkpt lat="52.523197" lon="8.359841">
        <ele>37.386429</ele>
        <time>2026-03-20T13:34:23.559Z</time>
      </trkpt>
      <trkpt lat="52.523282" lon="8.360001">
        <ele>37.385694</ele>
        <time>2026-03-20T13:34:27.527Z</time>
      </trkpt>
      <trkpt lat="52.523576" lon="8.360658">
        <ele>37.382871</ele>
        <time>2026-03-20T13:34:42.520Z</time>
      </trkpt>
      <trkpt lat="52.523816" lon="8.360941">
        <ele>37.381191</ele>
        <time>2026-03-20T13:34:51.140Z</time>
      </trkpt>
      <trkpt lat="52.523862" lon="8.360840">
        <ele>37.380754</ele>
        <time>2026-03-20T13:34:53.330Z</time>
      </trkpt>
      <trkpt lat="52.524027" lon="8.360733">
        <ele>37.379745</ele>
        <time>2026-03-20T13:34:58.384Z</time>
      </trkpt>
      <trkpt lat="52.524093" lon="8.360688">
        <ele>37.379339</ele>
        <time>2026-03-20T13:35:00.417Z</time>
      </trkpt>
      <trkpt lat="52.524134" lon="8.360661">
        <ele>37.379088</ele>
        <time>2026-03-20T13:35:01.674Z</time>
      </trkpt>
      <trkpt lat="52.524077" lon="8.360449">
        <ele>37.378285</ele>
        <time>2026-03-20T13:35:05.690Z</time>
      </trkpt>
      <trkpt lat="52.523787" lon="8.359290">
        <ele>37.301440</ele>
        <time>2026-03-20T13:35:27.133Z</time>
      </trkpt>
      <trkpt lat="52.523791" lon="8.359226">
        <ele>37.295511</ele>
        <time>2026-03-20T13:35:28.224Z</time>
      </trkpt>
      <trkpt lat="52.523832" lon="8.359168">
        <ele>37.287316</ele>
        <time>2026-03-20T13:35:29.730Z</time>
      </trkpt>
      <trkpt lat="52.524113" lon="8.358967">
        <ele>37.240894</ele>
        <time>2026-03-20T13:35:38.348Z</time>
      </trkpt>
      <trkpt lat="52.524386" lon="8.358762">
        <ele>37.195428</ele>
        <time>2026-03-20T13:35:46.939Z</time>
      </trkpt>
      <trkpt lat="52.524517" lon="8.358677">
        <ele>37.174094</ele>
        <time>2026-03-20T13:35:51.051Z</time>
      </trkpt>
      <trkpt lat="52.524692" lon="8.358562">
        <ele>37.145545</ele>
        <time>2026-03-20T13:35:56.631Z</time>
      </trkpt>
      <trkpt lat="52.524807" lon="8.358510">
        <ele>37.127477</ele>
        <time>2026-03-20T13:35:59.402Z</time>
      </trkpt>
      <trkpt lat="52.524917" lon="8.358685">
        <ele>37.104304</ele>
        <time>2026-03-20T13:36:03.004Z</time>
      </trkpt>
      <trkpt lat="52.525413" lon="8.358294">
        <ele>37.064468</ele>
        <time>2026-03-20T13:36:15.343Z</time>
      </trkpt>
      <trkpt lat="52.525422" lon="8.358142">
        <ele>37.057740</ele>
        <time>2026-03-20T13:36:17.388Z</time>
      </trkpt>
      <trkpt lat="52.525519" lon="8.357874">
        <ele>37.044001</ele>
        <time>2026-03-20T13:36:21.500Z</time>
      </trkpt>
      <trkpt lat="52.525781" lon="8.357611">
        <ele>37.021769</ele>
        <time>2026-03-20T13:36:28.123Z</time>
      </trkpt>
      <trkpt lat="52.526192" lon="8.357221">
        <ele>36.987403</ele>
        <time>2026-03-20T13:36:38.467Z</time>
      </trkpt>
      <trkpt lat="52.526657" lon="8.356780">
        <ele>36.943159</ele>
        <time>2026-03-20T13:36:50.126Z</time>
      </trkpt>
      <trkpt lat="52.526798" lon="8.356643">
        <ele>36.928805</ele>
        <time>2026-03-20T13:36:53.619Z</time>
      </trkpt>
      <trkpt lat="52.527287" lon="8.356172">
        <ele>36.879137</ele>
        <time>2026-03-20T13:37:05.935Z</time>
      </trkpt>
      <trkpt lat="52.528021" lon="8.355461">
        <ele>36.828063</ele>
        <time>2026-03-20T13:37:24.763Z</time>
      </trkpt>
      <trkpt lat="52.529887" lon="8.353587">
        <ele>37.146215</ele>
        <time>2026-03-20T13:38:14.245Z</time>
      </trkpt>
      <trkpt lat="52.530083" lon="8.353527">
        <ele>37.213419</ele>
        <time>2026-03-20T13:38:19.056Z</time>
      </trkpt>
      <trkpt lat="52.530234" lon="8.353527">
        <ele>37.264319</ele>
        <time>2026-03-20T13:38:22.733Z</time>
      </trkpt>
      <trkpt lat="52.530424" lon="8.353705">
        <ele>37.338036</ele>
        <time>2026-03-20T13:38:28.141Z</time>
      </trkpt>
      <trkpt lat="52.530814" lon="8.354197">
        <ele>37.503750</ele>
        <time>2026-03-20T13:38:40.101Z</time>
      </trkpt>
      <trkpt lat="52.531012" lon="8.354256">
        <ele>37.571580</ele>
        <time>2026-03-20T13:38:44.863Z</time>
      </trkpt>
      <trkpt lat="52.531114" lon="8.354270">
        <ele>37.567931</ele>
        <time>2026-03-20T13:38:47.239Z</time>
      </trkpt>
      <trkpt lat="52.531138" lon="8.354245">
        <ele>37.565504</ele>
        <time>2026-03-20T13:38:47.881Z</time>
      </trkpt>
      <trkpt lat="52.531230" lon="8.354057">
        <ele>37.552970</ele>
        <time>2026-03-20T13:38:51.258Z</time>
      </trkpt>
      <trkpt lat="52.531248" lon="8.354016">
        <ele>37.550343</ele>
        <time>2026-03-20T13:38:52.027Z</time>
      </trkpt>
      <trkpt lat="52.531379" lon="8.353760">
        <ele>37.532965</ele>
        <time>2026-03-20T13:38:57.095Z</time>
      </trkpt>
      <trkpt lat="52.531436" lon="8.353669">
        <ele>37.526179</ele>
        <time>2026-03-20T13:38:58.830Z</time>
      </trkpt>
      <trkpt lat="52.531591" lon="8.353443">
        <ele>37.508486</ele>
        <time>2026-03-20T13:39:06.353Z</time>
      </trkpt>
      <trkpt lat="52.531722" lon="8.353328">
        <ele>37.495804</ele>
        <time>2026-03-20T13:39:11.708Z</time>
      </trkpt>
      <trkpt lat="52.532627" lon="8.352656">
        <ele>37.435081</ele>
        <time>2026-03-20T13:39:47.397Z</time>
      </trkpt>
      <trkpt lat="52.532975" lon="8.352136">
        <ele>37.482496</ele>
        <time>2026-03-20T13:40:04.927Z</time>
      </trkpt>
      <trkpt lat="52.533450" lon="8.351176">
        <ele>37.558393</ele>
        <time>2026-03-20T13:40:33.405Z</time>
      </trkpt>
      <trkpt lat="52.533533" lon="8.351031">
        <ele>37.570604</ele>
        <time>2026-03-20T13:40:38.039Z</time>
      </trkpt>
      <trkpt lat="52.533624" lon="8.350936">
        <ele>37.581473</ele>
        <time>2026-03-20T13:40:42.151Z</time>
      </trkpt>
      <trkpt lat="52.533713" lon="8.350891">
        <ele>37.590861</ele>
        <time>2026-03-20T13:40:45.695Z</time>
      </trkpt>
      <trkpt lat="52.533887" lon="8.350881">
        <ele>37.603821</ele>
        <time>2026-03-20T13:40:52.334Z</time>
      </trkpt>
      <trkpt lat="52.533933" lon="8.350857">
        <ele>37.604237</ele>
        <time>2026-03-20T13:40:54.172Z</time>
      </trkpt>
      <trkpt lat="52.533976" lon="8.350768">
        <ele>37.604834</ele>
        <time>2026-03-20T13:40:56.795Z</time>
      </trkpt>
      <trkpt lat="52.533985" lon="8.350685">
        <ele>37.605277</ele>
        <time>2026-03-20T13:40:58.739Z</time>
      </trkpt>
      <trkpt lat="52.533867" lon="8.350289">
        <ele>37.607591</ele>
        <time>2026-03-20T13:41:08.824Z</time>
      </trkpt>
      <trkpt lat="52.533838" lon="8.350051">
        <ele>37.608866</ele>
        <time>2026-03-20T13:41:14.335Z</time>
      </trkpt>
      <trkpt lat="52.533844" lon="8.349739">
        <ele>37.610504</ele>
        <time>2026-03-20T13:41:21.405Z</time>
      </trkpt>
      <trkpt lat="52.534031" lon="8.348215">
        <ele>37.618666</ele>
        <time>2026-03-20T13:41:56.345Z</time>
      </trkpt>
      <trkpt lat="52.534065" lon="8.347762">
        <ele>37.550857</ele>
        <time>2026-03-20T13:42:06.368Z</time>
      </trkpt>
      <trkpt lat="52.534057" lon="8.347472">
        <ele>37.502591</ele>
        <time>2026-03-20T13:42:12.692Z</time>
      </trkpt>
      <trkpt lat="52.534030" lon="8.347327">
        <ele>37.477379</ele>
        <time>2026-03-20T13:42:15.983Z</time>
      </trkpt>
      <trkpt lat="52.533942" lon="8.346857">
        <ele>37.395618</ele>
        <time>2026-03-20T13:42:26.631Z</time>
      </trkpt>
      <trkpt lat="52.533762" lon="8.346367">
        <ele>37.300446</ele>
        <time>2026-03-20T13:42:39.057Z</time>
      </trkpt>
      <trkpt lat="52.533411" lon="8.345648">
        <ele>37.147166</ele>
        <time>2026-03-20T13:42:59.166Z</time>
      </trkpt>
      <trkpt lat="52.533095" lon="8.344932">
        <ele>37.085061</ele>
        <time>2026-03-20T13:43:18.699Z</time>
      </trkpt>
      <trkpt lat="52.533008" lon="8.344629">
        <ele>37.066565</ele>
        <time>2026-03-20T13:43:26.186Z</time>
      </trkpt>
      <trkpt lat="52.532946" lon="8.344189">
        <ele>37.041633</ele>
        <time>2026-03-20T13:43:36.333Z</time>
      </trkpt>
      <trkpt lat="52.532704" lon="8.340296">
        <ele>36.829080</ele>
        <time>2026-03-20T13:45:04.197Z</time>
      </trkpt>
      <trkpt lat="52.532631" lon="8.339598">
        <ele>36.767340</ele>
        <time>2026-03-20T13:45:16.452Z</time>
      </trkpt>
      <trkpt lat="52.532312" lon="8.338063">
        <ele>36.532487</ele>
        <time>2026-03-20T13:45:44.330Z</time>
      </trkpt>
      <trkpt lat="52.532060" lon="8.336815">
        <ele>36.368278</ele>
        <time>2026-03-20T13:46:06.949Z</time>
      </trkpt>
      <trkpt lat="52.532045" lon="8.336450">
        <ele>36.355213</ele>
        <time>2026-03-20T13:46:13.358Z</time>
      </trkpt>
      <trkpt lat="52.532119" lon="8.335779">
        <ele>36.330859</ele>
        <time>2026-03-20T13:46:25.433Z</time>
      </trkpt>
      <trkpt lat="52.532277" lon="8.335227">
        <ele>36.309072</ele>
        <time>2026-03-20T13:46:36.272Z</time>
      </trkpt>
      <trkpt lat="52.533492" lon="8.332009">
        <ele>36.211940</ele>
        <time>2026-03-20T13:47:43.515Z</time>
      </trkpt>
      <trkpt lat="52.533918" lon="8.330821">
        <ele>36.231659</ele>
        <time>2026-03-20T13:48:07.867Z</time>
      </trkpt>
      <trkpt lat="52.534452" lon="8.329456">
        <ele>36.266469</ele>
        <time>2026-03-20T13:48:36.885Z</time>
      </trkpt>
      <trkpt lat="52.535131" lon="8.327809">
        <ele>36.486426</ele>
        <time>2026-03-20T13:49:13.404Z</time>
      </trkpt>
      <trkpt lat="52.535365" lon="8.327368">
        <ele>36.556409</ele>
        <time>2026-03-20T13:49:24.169Z</time>
      </trkpt>
      <trkpt lat="52.535624" lon="8.327035">
        <ele>36.621051</ele>
        <time>2026-03-20T13:49:34.061Z</time>
      </trkpt>
      <trkpt lat="52.535844" lon="8.326840">
        <ele>36.647469</ele>
        <time>2026-03-20T13:49:41.543Z</time>
      </trkpt>
      <trkpt lat="52.535882" lon="8.326818">
        <ele>36.651493</ele>
        <time>2026-03-20T13:49:42.744Z</time>
      </trkpt>
      <trkpt lat="52.535976" lon="8.326764">
        <ele>36.661437</ele>
        <time>2026-03-20T13:49:45.715Z</time>
      </trkpt>
      <trkpt lat="52.536124" lon="8.326769">
        <ele>36.676220</ele>
        <time>2026-03-20T13:49:50.127Z</time>
      </trkpt>
      <trkpt lat="52.536189" lon="8.326804">
        <ele>36.683051</ele>
        <time>2026-03-20T13:49:52.157Z</time>
      </trkpt>
      <trkpt lat="52.536282" lon="8.326992">
        <ele>36.697771</ele>
        <time>2026-03-20T13:49:56.519Z</time>
      </trkpt>
      <trkpt lat="52.536319" lon="8.326972">
        <ele>36.701661</ele>
        <time>2026-03-20T13:49:57.691Z</time>
      </trkpt>
      <trkpt lat="52.536413" lon="8.326895">
        <ele>36.712149</ele>
        <time>2026-03-20T13:50:00.076Z</time>
      </trkpt>
      <trkpt lat="52.536433" lon="8.326843">
        <ele>36.715886</ele>
        <time>2026-03-20T13:50:01.461Z</time>
      </trkpt>
      <trkpt lat="52.536382" lon="8.326680">
        <ele>36.727021</ele>
        <time>2026-03-20T13:50:05.631Z</time>
      </trkpt>
      <trkpt lat="52.536376" lon="8.326526">
        <ele>36.736395</ele>
        <time>2026-03-20T13:50:09.106Z</time>
      </trkpt>
      <trkpt lat="52.536432" lon="8.326386">
        <ele>36.746573</ele>
        <time>2026-03-20T13:50:12.890Z</time>
      </trkpt>
      <trkpt lat="52.536495" lon="8.326320">
        <ele>36.754034</ele>
        <time>2026-03-20T13:50:15.672Z</time>
      </trkpt>
      <trkpt lat="52.537557" lon="8.325769">
        <ele>36.859483</ele>
        <time>2026-03-20T13:50:57.043Z</time>
      </trkpt>
      <trkpt lat="52.538075" lon="8.325242">
        <ele>36.914626</ele>
        <time>2026-03-20T13:51:19.879Z</time>
      </trkpt>
      <trkpt lat="52.538249" lon="8.324931">
        <ele>36.937891</ele>
        <time>2026-03-20T13:51:29.547Z</time>
      </trkpt>
      <trkpt lat="52.538413" lon="8.324553">
        <ele>36.963456</ele>
        <time>2026-03-20T13:51:40.221Z</time>
      </trkpt>
      <trkpt lat="52.538545" lon="8.324147">
        <ele>36.999508</ele>
        <time>2026-03-20T13:51:50.806Z</time>
      </trkpt>
      <trkpt lat="52.538663" lon="8.323651">
        <ele>37.042880</ele>
        <time>2026-03-20T13:52:03.051Z</time>
      </trkpt>
      <trkpt lat="52.538719" lon="8.323224">
        <ele>37.078452</ele>
        <time>2026-03-20T13:52:13.078Z</time>
      </trkpt>
      <trkpt lat="52.538750" lon="8.322659">
        <ele>37.124650</ele>
        <time>2026-03-20T13:52:25.982Z</time>
      </trkpt>
      <trkpt lat="52.538712" lon="8.321605">
        <ele>37.215506</ele>
        <time>2026-03-20T13:52:49.984Z</time>
      </trkpt>
      <trkpt lat="52.538544" lon="8.320697">
        <ele>37.404984</ele>
        <time>2026-03-20T13:53:11.935Z</time>
      </trkpt>
      <trkpt lat="52.538407" lon="8.320264">
        <ele>37.502426</ele>
        <time>2026-03-20T13:53:23.375Z</time>
      </trkpt>
      <trkpt lat="52.537909" lon="8.318877">
        <ele>37.793561</ele>
        <time>2026-03-20T13:54:01.536Z</time>
      </trkpt>
      <trkpt lat="52.537695" lon="8.318415">
        <ele>37.775516</ele>
        <time>2026-03-20T13:54:15.031Z</time>
      </trkpt>
      <trkpt lat="52.537496" lon="8.318029">
        <ele>37.759793</ele>
        <time>2026-03-20T13:54:26.560Z</time>
      </trkpt>
      <trkpt lat="52.535919" lon="8.315611">
        <ele>37.634044</ele>
        <time>2026-03-20T13:55:44.259Z</time>
      </trkpt>
      <trkpt lat="52.535743" lon="8.315246">
        <ele>37.615552</ele>
        <time>2026-03-20T13:55:54.870Z</time>
      </trkpt>
      <trkpt lat="52.535443" lon="8.314393">
        <ele>37.616478</ele>
        <time>2026-03-20T13:56:17.624Z</time>
      </trkpt>
      <trkpt lat="52.535291" lon="8.314116">
        <ele>37.651335</ele>
        <time>2026-03-20T13:56:26.354Z</time>
      </trkpt>
      <trkpt lat="52.535176" lon="8.313971">
        <ele>37.673597</ele>
        <time>2026-03-20T13:56:31.931Z</time>
      </trkpt>
      <trkpt lat="52.535006" lon="8.313829">
        <ele>37.702888</ele>
        <time>2026-03-20T13:56:39.262Z</time>
      </trkpt>
      <trkpt lat="52.531982" lon="8.311839">
        <ele>38.068417</ele>
        <time>2026-03-20T13:58:40.967Z</time>
      </trkpt>
      <trkpt lat="52.531550" lon="8.311557">
        <ele>38.163371</ele>
        <time>2026-03-20T13:58:58.648Z</time>
      </trkpt>
      <trkpt lat="52.531155" lon="8.311267">
        <ele>38.251746</ele>
        <time>2026-03-20T13:59:09.183Z</time>
      </trkpt>
      <trkpt lat="52.531091" lon="8.311238">
        <ele>38.265308</ele>
        <time>2026-03-20T13:59:10.790Z</time>
      </trkpt>
      <trkpt lat="52.530771" lon="8.311097">
        <ele>38.332986</ele>
        <time>2026-03-20T13:59:18.444Z</time>
      </trkpt>
      <trkpt lat="52.530377" lon="8.311087">
        <ele>38.420313</ele>
        <time>2026-03-20T13:59:27.240Z</time>
      </trkpt>
      <trkpt lat="52.530101" lon="8.311201">
        <ele>38.485014</ele>
        <time>2026-03-20T13:59:33.518Z</time>
      </trkpt>
      <trkpt lat="52.529855" lon="8.311495">
        <ele>38.554163</ele>
        <time>2026-03-20T13:59:40.702Z</time>
      </trkpt>
      <trkpt lat="52.529613" lon="8.311636">
        <ele>38.612537</ele>
        <time>2026-03-20T13:59:46.916Z</time>
      </trkpt>
      <trkpt lat="52.529433" lon="8.311682">
        <ele>38.653953</ele>
        <time>2026-03-20T13:59:51.176Z</time>
      </trkpt>
      <trkpt lat="52.529062" lon="8.311687">
        <ele>38.738304</ele>
        <time>2026-03-20T13:59:59.549Z</time>
      </trkpt>
      <trkpt lat="52.529051" lon="8.311253">
        <ele>38.741485</ele>
        <time>2026-03-20T14:00:07.624Z</time>
      </trkpt>
      <trkpt lat="52.529043" lon="8.310993">
        <ele>38.721260</ele>
        <time>2026-03-20T14:00:12.546Z</time>
      </trkpt>
      <trkpt lat="52.529031" lon="8.310614">
        <ele>38.691776</ele>
        <time>2026-03-20T14:00:19.801Z</time>
      </trkpt>
      <trkpt lat="52.529018" lon="8.310184">
        <ele>38.658328</ele>
        <time>2026-03-20T14:00:27.848Z</time>
      </trkpt>
      <trkpt lat="52.529009" lon="8.310011">
        <ele>38.644839</ele>
        <time>2026-03-20T14:00:31.022Z</time>
      </trkpt>
      <trkpt lat="52.529002" lon="8.309857">
        <ele>38.632841</ele>
        <time>2026-03-20T14:00:33.609Z</time>
      </trkpt>
      <trkpt lat="52.528991" lon="8.309622">
        <ele>38.614530</ele>
        <time>2026-03-20T14:00:37.640Z</time>
      </trkpt>
      <trkpt lat="52.528971" lon="8.309214">
        <ele>38.582730</ele>
        <time>2026-03-20T14:00:44.347Z</time>
      </trkpt>
      <trkpt lat="52.528927" lon="8.308928">
        <ele>38.559811</ele>
        <time>2026-03-20T14:00:49.046Z</time>
      </trkpt>
      <trkpt lat="52.528911" lon="8.308843">
        <ele>38.552899</ele>
        <time>2026-03-20T14:00:50.483Z</time>
      </trkpt>
      <trkpt lat="52.528901" lon="8.308581">
        <ele>38.532504</ele>
        <time>2026-03-20T14:00:54.747Z</time>
      </trkpt>
      <trkpt lat="52.528896" lon="8.308414">
        <ele>38.518856</ele>
        <time>2026-03-20T14:00:57.469Z</time>
      </trkpt>
      <trkpt lat="52.528885" lon="8.308063">
        <ele>38.490139</ele>
        <time>2026-03-20T14:01:04.938Z</time>
      </trkpt>
      <trkpt lat="52.528900" lon="8.308062">
        <ele>38.488123</ele>
        <time>2026-03-20T14:01:05.240Z</time>
      </trkpt>
      <trkpt lat="52.528598" lon="8.297461">
        <ele>37.935936</ele>
        <time>2026-03-20T14:03:26.703Z</time>
      </trkpt>
      <trkpt lat="52.528580" lon="8.296375">
        <ele>38.100151</ele>
        <time>2026-03-20T14:03:42.924Z</time>
      </trkpt>
      <trkpt lat="52.528597" lon="8.296320">
        <ele>38.119022</ele>
        <time>2026-03-20T14:03:43.878Z</time>
      </trkpt>
      <trkpt lat="52.528636" lon="8.296275">
        <ele>38.142981</ele>
        <time>2026-03-20T14:03:45.047Z</time>
      </trkpt>
      <trkpt lat="52.529671" lon="8.296220">
        <ele>38.663671</ele>
        <time>2026-03-20T14:04:10.493Z</time>
      </trkpt>
      <trkpt lat="52.530041" lon="8.296165">
        <ele>38.850474</ele>
        <time>2026-03-20T14:04:19.417Z</time>
      </trkpt>
      <trkpt lat="52.531185" lon="8.295859">
        <ele>39.082866</ele>
        <time>2026-03-20T14:04:46.654Z</time>
      </trkpt>
      <trkpt lat="52.531619" lon="8.295725">
        <ele>39.164741</ele>
        <time>2026-03-20T14:04:56.546Z</time>
      </trkpt>
      <trkpt lat="52.532438" lon="8.295503">
        <ele>39.144460</ele>
        <time>2026-03-20T14:05:14.282Z</time>
      </trkpt>
      <trkpt lat="52.534910" lon="8.294927">
        <ele>39.290831</ele>
        <time>2026-03-20T14:06:09.089Z</time>
      </trkpt>
      <trkpt lat="52.535066" lon="8.294912">
        <ele>39.326214</ele>
        <time>2026-03-20T14:06:12.882Z</time>
      </trkpt>
      <trkpt lat="52.535228" lon="8.294949">
        <ele>39.363248</ele>
        <time>2026-03-20T14:06:16.942Z</time>
      </trkpt>
      <trkpt lat="52.535206" lon="8.294827">
        <ele>39.380774</ele>
        <time>2026-03-20T14:06:18.920Z</time>
      </trkpt>
      <trkpt lat="52.535174" lon="8.294682">
        <ele>39.402019</ele>
        <time>2026-03-20T14:06:21.323Z</time>
      </trkpt>
      <trkpt lat="52.535133" lon="8.294495">
        <ele>39.498816</ele>
        <time>2026-03-20T14:06:24.516Z</time>
      </trkpt>
      <trkpt lat="52.535185" lon="8.294467">
        <ele>39.554213</ele>
        <time>2026-03-20T14:06:25.947Z</time>
      </trkpt>
      <trkpt lat="52.535227" lon="8.294456">
        <ele>39.597271</ele>
        <time>2026-03-20T14:06:27.093Z</time>
      </trkpt>
      <trkpt lat="52.535325" lon="8.294518">
        <ele>39.703581</ele>
        <time>2026-03-20T14:06:29.914Z</time>
      </trkpt>
      <trkpt lat="52.535613" lon="8.294338">
        <ele>40.015517</ele>
        <time>2026-03-20T14:06:38.361Z</time>
      </trkpt>
      <trkpt lat="52.536187" lon="8.293826">
        <ele>40.676670</ele>
        <time>2026-03-20T14:06:56.199Z</time>
      </trkpt>
      <trkpt lat="52.536320" lon="8.293624">
        <ele>40.859987</ele>
        <time>2026-03-20T14:07:00.906Z</time>
      </trkpt>
      <trkpt lat="52.536476" lon="8.293518">
        <ele>41.030882</ele>
        <time>2026-03-20T14:07:05.319Z</time>
      </trkpt>
      <trkpt lat="52.536984" lon="8.292882">
        <ele>41.358037</ele>
        <time>2026-03-20T14:07:21.487Z</time>
      </trkpt>
      <trkpt lat="52.537801" lon="8.291987">
        <ele>41.641925</ele>
        <time>2026-03-20T14:07:44.175Z</time>
      </trkpt>
      <trkpt lat="52.538493" lon="8.291389">
        <ele>41.667664</ele>
        <time>2026-03-20T14:08:00.856Z</time>
      </trkpt>
      <trkpt lat="52.539174" lon="8.290976">
        <ele>41.519730</ele>
        <time>2026-03-20T14:08:15.947Z</time>
      </trkpt>
      <trkpt lat="52.539664" lon="8.290819">
        <ele>41.417985</ele>
        <time>2026-03-20T14:08:26.569Z</time>
      </trkpt>
      <trkpt lat="52.539961" lon="8.290769">
        <ele>41.469948</ele>
        <time>2026-03-20T14:08:33.252Z</time>
      </trkpt>
      <trkpt lat="52.540886" lon="8.290724">
        <ele>42.076242</ele>
        <time>2026-03-20T14:08:56.326Z</time>
      </trkpt>
      <trkpt lat="52.540981" lon="8.290712">
        <ele>42.138666</ele>
        <time>2026-03-20T14:08:58.875Z</time>
      </trkpt>
      <trkpt lat="52.541157" lon="8.290757">
        <ele>42.255361</ele>
        <time>2026-03-20T14:09:03.636Z</time>
      </trkpt>
      <trkpt lat="52.542136" lon="8.291068">
        <ele>42.813280</ele>
        <time>2026-03-20T14:09:29.307Z</time>
      </trkpt>
      <trkpt lat="52.542242" lon="8.291121">
        <ele>42.865883</ele>
        <time>2026-03-20T14:09:32.042Z</time>
      </trkpt>
      <trkpt lat="52.542263" lon="8.291161">
        <ele>42.881141</ele>
        <time>2026-03-20T14:09:32.828Z</time>
      </trkpt>
      <trkpt lat="52.542317" lon="8.291221">
        <ele>42.912084</ele>
        <time>2026-03-20T14:09:34.403Z</time>
      </trkpt>
      <trkpt lat="52.542703" lon="8.291243">
        <ele>43.095460</ele>
        <time>2026-03-20T14:09:44.029Z</time>
      </trkpt>
      <trkpt lat="52.543050" lon="8.291116">
        <ele>43.264241</ele>
        <time>2026-03-20T14:09:52.664Z</time>
      </trkpt>
      <trkpt lat="52.544866" lon="8.289904">
        <ele>43.569586</ele>
        <time>2026-03-20T14:10:38.915Z</time>
      </trkpt>
      <trkpt lat="52.545180" lon="8.289613">
        <ele>43.586192</ele>
        <time>2026-03-20T14:10:47.214Z</time>
      </trkpt>
      <trkpt lat="52.547965" lon="8.286390">
        <ele>43.711991</ele>
        <time>2026-03-20T14:12:05.853Z</time>
      </trkpt>
      <trkpt lat="52.548051" lon="8.286344">
        <ele>43.757676</ele>
        <time>2026-03-20T14:12:08.073Z</time>
      </trkpt>
      <trkpt lat="52.548165" lon="8.286293">
        <ele>43.817359</ele>
        <time>2026-03-20T14:12:10.894Z</time>
      </trkpt>
      <trkpt lat="52.548753" lon="8.286309">
        <ele>44.114440</ele>
        <time>2026-03-20T14:12:25.418Z</time>
      </trkpt>
      <trkpt lat="52.549270" lon="8.286318">
        <ele>44.375628</ele>
        <time>2026-03-20T14:12:38.259Z</time>
      </trkpt>
      <trkpt lat="52.549532" lon="8.286317">
        <ele>44.507983</ele>
        <time>2026-03-20T14:12:44.445Z</time>
      </trkpt>
      <trkpt lat="52.549604" lon="8.286317">
        <ele>44.544355</ele>
        <time>2026-03-20T14:12:46.217Z</time>
      </trkpt>
      <trkpt lat="52.550571" lon="8.286498">
        <ele>44.880111</ele>
        <time>2026-03-20T14:13:10.684Z</time>
      </trkpt>
      <trkpt lat="52.551484" lon="8.286704">
        <ele>45.172970</ele>
        <time>2026-03-20T14:13:31.691Z</time>
      </trkpt>
      <trkpt lat="52.552560" lon="8.287026">
        <ele>44.917858</ele>
        <time>2026-03-20T14:13:54.690Z</time>
      </trkpt>
      <trkpt lat="52.552724" lon="8.287004">
        <ele>44.875576</ele>
        <time>2026-03-20T14:13:58.006Z</time>
      </trkpt>
      <trkpt lat="52.553387" lon="8.287207">
        <ele>44.732216</ele>
        <time>2026-03-20T14:14:12.218Z</time>
      </trkpt>
      <trkpt lat="52.553508" lon="8.287306">
        <ele>44.743017</ele>
        <time>2026-03-20T14:14:15.224Z</time>
      </trkpt>
      <trkpt lat="52.554502" lon="8.287616">
        <ele>44.823871</ele>
        <time>2026-03-20T14:14:38.748Z</time>
      </trkpt>
      <trkpt lat="52.554668" lon="8.287663">
        <ele>44.837332</ele>
        <time>2026-03-20T14:14:42.530Z</time>
      </trkpt>
      <trkpt lat="52.554959" lon="8.287714">
        <ele>44.860720</ele>
        <time>2026-03-20T14:14:49.029Z</time>
      </trkpt>
      <trkpt lat="52.555527" lon="8.287888">
        <ele>44.827668</ele>
        <time>2026-03-20T14:15:01.831Z</time>
      </trkpt>
      <trkpt lat="52.555736" lon="8.287915">
        <ele>44.809523</ele>
        <time>2026-03-20T14:15:06.370Z</time>
      </trkpt>
      <trkpt lat="52.556032" lon="8.288065">
        <ele>44.782716</ele>
        <time>2026-03-20T14:15:12.803Z</time>
      </trkpt>
      <trkpt lat="52.556328" lon="8.288149">
        <ele>44.756719</ele>
        <time>2026-03-20T14:15:19.065Z</time>
      </trkpt>
      <trkpt lat="52.557444" lon="8.288480">
        <ele>44.781543</ele>
        <time>2026-03-20T14:15:45.102Z</time>
      </trkpt>
      <trkpt lat="52.557788" lon="8.288528">
        <ele>44.818939</ele>
        <time>2026-03-20T14:15:53.075Z</time>
      </trkpt>
      <trkpt lat="52.558842" lon="8.288496">
        <ele>44.853014</ele>
        <time>2026-03-20T14:16:17.081Z</time>
      </trkpt>
      <trkpt lat="52.560339" lon="8.288485">
        <ele>44.497774</ele>
        <time>2026-03-20T14:16:47.900Z</time>
      </trkpt>
      <trkpt lat="52.561196" lon="8.288464">
        <ele>44.690146</ele>
        <time>2026-03-20T14:17:08.244Z</time>
      </trkpt>
      <trkpt lat="52.562064" lon="8.288313">
        <ele>44.921796</ele>
        <time>2026-03-20T14:17:29.203Z</time>
      </trkpt>
      <trkpt lat="52.562114" lon="8.288303">
        <ele>44.935164</ele>
        <time>2026-03-20T14:17:30.350Z</time>
      </trkpt>
      <trkpt lat="52.562216" lon="8.288290">
        <ele>44.960154</ele>
        <time>2026-03-20T14:17:32.710Z</time>
      </trkpt>
      <trkpt lat="52.562801" lon="8.288188">
        <ele>45.026367</ele>
        <time>2026-03-20T14:17:46.268Z</time>
      </trkpt>
      <trkpt lat="52.563018" lon="8.288110">
        <ele>45.051367</ele>
        <time>2026-03-20T14:17:51.058Z</time>
      </trkpt>
      <trkpt lat="52.563295" lon="8.288116">
        <ele>45.082547</ele>
        <time>2026-03-20T14:17:56.991Z</time>
      </trkpt>
      <trkpt lat="52.564197" lon="8.287951">
        <ele>45.171133</ele>
        <time>2026-03-20T14:18:17.532Z</time>
      </trkpt>
      <trkpt lat="52.564280" lon="8.287937">
        <ele>45.175148</ele>
        <time>2026-03-20T14:18:19.687Z</time>
      </trkpt>
      <trkpt lat="52.564793" lon="8.287850">
        <ele>45.199961</ele>
        <time>2026-03-20T14:18:32.301Z</time>
      </trkpt>
      <trkpt lat="52.567132" lon="8.287467">
        <ele>44.968442</ele>
        <time>2026-03-20T14:19:22.567Z</time>
      </trkpt>
      <trkpt lat="52.567318" lon="8.287437">
        <ele>44.930131</ele>
        <time>2026-03-20T14:19:26.500Z</time>
      </trkpt>
      <trkpt lat="52.567633" lon="8.287330">
        <ele>44.910837</ele>
        <time>2026-03-20T14:19:33.357Z</time>
      </trkpt>
      <trkpt lat="52.567768" lon="8.287246">
        <ele>44.975475</ele>
        <time>2026-03-20T14:19:36.529Z</time>
      </trkpt>
      <trkpt lat="52.567987" lon="8.287032">
        <ele>45.089548</ele>
        <time>2026-03-20T14:19:42.310Z</time>
      </trkpt>
      <trkpt lat="52.568158" lon="8.286776">
        <ele>45.193089</ele>
        <time>2026-03-20T14:19:47.708Z</time>
      </trkpt>
      <trkpt lat="52.568247" lon="8.286620">
        <ele>45.251328</ele>
        <time>2026-03-20T14:19:50.854Z</time>
      </trkpt>
      <trkpt lat="52.568410" lon="8.286190">
        <ele>45.389275</ele>
        <time>2026-03-20T14:19:58.609Z</time>
      </trkpt>
      <trkpt lat="52.568635" lon="8.285099">
        <ele>45.695027</ele>
        <time>2026-03-20T14:20:16.378Z</time>
      </trkpt>
      <trkpt lat="52.568821" lon="8.284444">
        <ele>45.808409</ele>
        <time>2026-03-20T14:20:27.615Z</time>
      </trkpt>
      <trkpt lat="52.568917" lon="8.284229">
        <ele>45.850247</ele>
        <time>2026-03-20T14:20:31.641Z</time>
      </trkpt>
      <trkpt lat="52.569331" lon="8.283695">
        <ele>45.985984</ele>
        <time>2026-03-20T14:20:43.898Z</time>
      </trkpt>
      <trkpt lat="52.569481" lon="8.283552">
        <ele>46.030716</ele>
        <time>2026-03-20T14:20:47.698Z</time>
      </trkpt>
      <trkpt lat="52.569569" lon="8.283478">
        <ele>46.056216</ele>
        <time>2026-03-20T14:20:49.854Z</time>
      </trkpt>
      <trkpt lat="52.570506" lon="8.283209">
        <ele>45.809468</ele>
        <time>2026-03-20T14:21:09.878Z</time>
      </trkpt>
      <trkpt lat="52.571094" lon="8.283044">
        <ele>45.468898</ele>
        <time>2026-03-20T14:21:21.787Z</time>
      </trkpt>
      <trkpt lat="52.572980" lon="8.282471">
        <ele>44.437297</ele>
        <time>2026-03-20T14:21:59.939Z</time>
      </trkpt>
      <trkpt lat="52.573651" lon="8.282265">
        <ele>44.212484</ele>
        <time>2026-03-20T14:22:14.936Z</time>
      </trkpt>
      <trkpt lat="52.573998" lon="8.282240">
        <ele>44.267822</ele>
        <time>2026-03-20T14:22:23.199Z</time>
      </trkpt>
      <trkpt lat="52.574211" lon="8.282280">
        <ele>44.301977</ele>
        <time>2026-03-20T14:22:28.472Z</time>
      </trkpt>
      <trkpt lat="52.574960" lon="8.282401">
        <ele>44.421882</ele>
        <time>2026-03-20T14:22:45.833Z</time>
      </trkpt>
      <trkpt lat="52.575176" lon="8.282417">
        <ele>44.456330</ele>
        <time>2026-03-20T14:22:50.621Z</time>
      </trkpt>
      <trkpt lat="52.575995" lon="8.282177">
        <ele>44.328797</ele>
        <time>2026-03-20T14:23:09.008Z</time>
      </trkpt>
      <trkpt lat="52.576121" lon="8.282189">
        <ele>44.305553</ele>
        <time>2026-03-20T14:23:11.709Z</time>
      </trkpt>
      <trkpt lat="52.576970" lon="8.282004">
        <ele>44.147832</ele>
        <time>2026-03-20T14:23:29.697Z</time>
      </trkpt>
      <trkpt lat="52.577735" lon="8.281825">
        <ele>44.218843</ele>
        <time>2026-03-20T14:23:46.406Z</time>
      </trkpt>
      <trkpt lat="52.578128" lon="8.281698">
        <ele>44.264768</ele>
        <time>2026-03-20T14:23:55.273Z</time>
      </trkpt>
      <trkpt lat="52.578849" lon="8.281354">
        <ele>44.394911</ele>
        <time>2026-03-20T14:24:13.108Z</time>
      </trkpt>
      <trkpt lat="52.579592" lon="8.280796">
        <ele>45.030716</ele>
        <time>2026-03-20T14:24:33.587Z</time>
      </trkpt>
      <trkpt lat="52.580161" lon="8.280311">
        <ele>45.529568</ele>
        <time>2026-03-20T14:24:50.189Z</time>
      </trkpt>
      <trkpt lat="52.581392" lon="8.279470">
        <ele>46.434783</ele>
        <time>2026-03-20T14:25:24.911Z</time>
      </trkpt>
      <trkpt lat="52.581897" lon="8.278967">
        <ele>46.820452</ele>
        <time>2026-03-20T14:25:39.282Z</time>
      </trkpt>
      <trkpt lat="52.582154" lon="8.278609">
        <ele>46.888270</ele>
        <time>2026-03-20T14:25:46.884Z</time>
      </trkpt>
      <trkpt lat="52.582516" lon="8.277834">
        <ele>46.791573</ele>
        <time>2026-03-20T14:25:59.445Z</time>
      </trkpt>
      <trkpt lat="52.582769" lon="8.276677">
        <ele>46.669938</ele>
        <time>2026-03-20T14:26:14.842Z</time>
      </trkpt>
      <trkpt lat="52.582854" lon="8.275742">
        <ele>46.797383</ele>
        <time>2026-03-20T14:26:27.568Z</time>
      </trkpt>
      <trkpt lat="52.582932" lon="8.274294">
        <ele>47.296946</ele>
        <time>2026-03-20T14:26:49.440Z</time>
      </trkpt>
      <trkpt lat="52.583184" lon="8.269824">
        <ele>49.420583</ele>
        <time>2026-03-20T14:27:59.705Z</time>
      </trkpt>
      <trkpt lat="52.583245" lon="8.269245">
        <ele>49.680987</ele>
        <time>2026-03-20T14:28:08.554Z</time>
      </trkpt>
      <trkpt lat="52.583307" lon="8.268894">
        <ele>49.842967</ele>
        <time>2026-03-20T14:28:14.068Z</time>
      </trkpt>
      <trkpt lat="52.583424" lon="8.268521">
        <ele>50.028982</ele>
        <time>2026-03-20T14:28:20.397Z</time>
      </trkpt>
      <trkpt lat="52.583552" lon="8.267909">
        <ele>50.315797</ele>
        <time>2026-03-20T14:28:30.170Z</time>
      </trkpt>
      <trkpt lat="52.583598" lon="8.267950">
        <ele>50.353949</ele>
        <time>2026-03-20T14:28:31.512Z</time>
      </trkpt>
      <trkpt lat="52.583635" lon="8.267977">
        <ele>50.383467</ele>
        <time>2026-03-20T14:28:32.525Z</time>
      </trkpt>
      <trkpt lat="52.584597" lon="8.267920">
        <ele>50.461282</ele>
        <time>2026-03-20T14:28:57.366Z</time>
      </trkpt>
      <trkpt lat="52.584658" lon="8.267954">
        <ele>50.458078</ele>
        <time>2026-03-20T14:28:58.881Z</time>
      </trkpt>
      <trkpt lat="52.585220" lon="8.268222">
        <ele>50.428976</ele>
        <time>2026-03-20T14:29:19.690Z</time>
      </trkpt>
      <trkpt lat="52.585685" lon="8.268532">
        <ele>50.290917</ele>
        <time>2026-03-20T14:29:36.248Z</time>
      </trkpt>
      <trkpt lat="52.585860" lon="8.268605">
        <ele>50.149218</ele>
        <time>2026-03-20T14:29:42.072Z</time>
      </trkpt>
      <trkpt lat="52.586575" lon="8.268907">
        <ele>49.569833</ele>
        <time>2026-03-20T14:30:06.370Z</time>
      </trkpt>
      <trkpt lat="52.587015" lon="8.269001">
        <ele>49.221582</ele>
        <time>2026-03-20T14:30:21.775Z</time>
      </trkpt>
      <trkpt lat="52.587567" lon="8.269042">
        <ele>49.407133</ele>
        <time>2026-03-20T14:30:42.527Z</time>
      </trkpt>
      <trkpt lat="52.588635" lon="8.268726">
        <ele>51.042684</ele>
        <time>2026-03-20T14:31:29.359Z</time>
      </trkpt>
      <trkpt lat="52.589735" lon="8.268399">
        <ele>53.285293</ele>
        <time>2026-03-20T14:32:22.365Z</time>
      </trkpt>
      <trkpt lat="52.590736" lon="8.268250">
        <ele>55.631490</ele>
        <time>2026-03-20T14:33:10.718Z</time>
      </trkpt>
      <trkpt lat="52.591066" lon="8.268156">
        <ele>55.900131</ele>
        <time>2026-03-20T14:33:25.433Z</time>
      </trkpt>
      <trkpt lat="52.592364" lon="8.267804">
        <ele>55.842586</ele>
        <time>2026-03-20T14:34:13.429Z</time>
      </trkpt>
      <trkpt lat="52.594002" lon="8.267417">
        <ele>54.107067</ele>
        <time>2026-03-20T14:35:06.178Z</time>
      </trkpt>
      <trkpt lat="52.594986" lon="8.267164">
        <ele>53.866530</ele>
        <time>2026-03-20T14:35:42.529Z</time>
      </trkpt>
      <trkpt lat="52.595246" lon="8.267168">
        <ele>53.986775</ele>
        <time>2026-03-20T14:35:53.011Z</time>
      </trkpt>
      <trkpt lat="52.595591" lon="8.267236">
        <ele>54.147463</ele>
        <time>2026-03-20T14:36:07.276Z</time>
      </trkpt>
      <trkpt lat="52.596569" lon="8.267204">
        <ele>54.538866</ele>
        <time>2026-03-20T14:36:47.035Z</time>
      </trkpt>
      <trkpt lat="52.597345" lon="8.267113">
        <ele>54.771041</ele>
        <time>2026-03-20T14:37:17.364Z</time>
      </trkpt>
      <trkpt lat="52.598141" lon="8.267069">
        <ele>54.811702</ele>
        <time>2026-03-20T14:37:46.289Z</time>
      </trkpt>
      <trkpt lat="52.598207" lon="8.267062">
        <ele>54.743094</ele>
        <time>2026-03-20T14:37:48.643Z</time>
      </trkpt>
      <trkpt lat="52.598430" lon="8.267026">
        <ele>54.510652</ele>
        <time>2026-03-20T14:37:56.486Z</time>
      </trkpt>
      <trkpt lat="52.599053" lon="8.267017">
        <ele>53.864349</ele>
        <time>2026-03-20T14:38:17.417Z</time>
      </trkpt>
      <trkpt lat="52.599520" lon="8.266946">
        <ele>53.377838</ele>
        <time>2026-03-20T14:38:32.453Z</time>
      </trkpt>
      <trkpt lat="52.600450" lon="8.266912">
        <ele>52.433364</ele>
        <time>2026-03-20T14:39:03.122Z</time>
      </trkpt>
      <trkpt lat="52.600836" lon="8.266854">
        <ele>52.043300</ele>
        <time>2026-03-20T14:39:16.152Z</time>
      </trkpt>
      <trkpt lat="52.601339" lon="8.266762">
        <ele>51.533995</ele>
        <time>2026-03-20T14:39:33.581Z</time>
      </trkpt>
      <trkpt lat="52.603090" lon="8.266622">
        <ele>50.531277</ele>
        <time>2026-03-20T14:40:35.123Z</time>
      </trkpt>
      <trkpt lat="52.603138" lon="8.266590">
        <ele>50.505288</ele>
        <time>2026-03-20T14:40:36.984Z</time>
      </trkpt>
      <trkpt lat="52.603315" lon="8.266612">
        <ele>50.416204</ele>
        <time>2026-03-20T14:40:43.294Z</time>
      </trkpt>
      <trkpt lat="52.603769" lon="8.266570">
        <ele>50.470058</ele>
        <time>2026-03-20T14:40:59.768Z</time>
      </trkpt>
      <trkpt lat="52.605664" lon="8.266326">
        <ele>51.451044</ele>
        <time>2026-03-20T14:42:12.771Z</time>
      </trkpt>
      <trkpt lat="52.606588" lon="8.266246">
        <ele>52.721896</ele>
        <time>2026-03-20T14:42:41.421Z</time>
      </trkpt>
      <trkpt lat="52.607407" lon="8.266208">
        <ele>54.143192</ele>
        <time>2026-03-20T14:43:09.127Z</time>
      </trkpt>
      <trkpt lat="52.607568" lon="8.266164">
        <ele>54.476411</ele>
        <time>2026-03-20T14:43:14.731Z</time>
      </trkpt>
      <trkpt lat="52.607689" lon="8.266129">
        <ele>54.727246</ele>
        <time>2026-03-20T14:43:18.913Z</time>
      </trkpt>
      <trkpt lat="52.608401" lon="8.266104">
        <ele>56.181307</ele>
        <time>2026-03-20T14:43:42.566Z</time>
      </trkpt>
      <trkpt lat="52.608876" lon="8.266165">
        <ele>57.049677</ele>
        <time>2026-03-20T14:43:57.666Z</time>
      </trkpt>
      <trkpt lat="52.609682" lon="8.266044">
        <ele>57.991435</ele>
        <time>2026-03-20T14:44:22.182Z</time>
      </trkpt>
      <trkpt lat="52.609915" lon="8.266002">
        <ele>58.264175</ele>
        <time>2026-03-20T14:44:28.944Z</time>
      </trkpt>
      <trkpt lat="52.610621" lon="8.266030">
        <ele>59.031391</ele>
        <time>2026-03-20T14:44:48.659Z</time>
      </trkpt>
      <trkpt lat="52.611379" lon="8.265923">
        <ele>59.325614</ele>
        <time>2026-03-20T14:45:08.928Z</time>
      </trkpt>
      <trkpt lat="52.611906" lon="8.265868">
        <ele>59.529835</ele>
        <time>2026-03-20T14:45:22.572Z</time>
      </trkpt>
      <trkpt lat="52.612715" lon="8.265693">
        <ele>59.780595</ele>
        <time>2026-03-20T14:45:43.080Z</time>
      </trkpt>
      <trkpt lat="52.614009" lon="8.266464">
        <ele>60.075842</ele>
        <time>2026-03-20T14:46:18.339Z</time>
      </trkpt>
      <trkpt lat="52.614166" lon="8.266465">
        <ele>60.131729</ele>
        <time>2026-03-20T14:46:22.279Z</time>
      </trkpt>
      <trkpt lat="52.614217" lon="8.266433">
        <ele>60.154377</ele>
        <time>2026-03-20T14:46:23.663Z</time>
      </trkpt>
      <trkpt lat="52.614528" lon="8.266008">
        <ele>60.322079</ele>
        <time>2026-03-20T14:46:34.172Z</time>
      </trkpt>
      <trkpt lat="52.614710" lon="8.265728">
        <ele>60.425430</ele>
        <time>2026-03-20T14:46:40.858Z</time>
      </trkpt>
      <trkpt lat="52.614745" lon="8.265686">
        <ele>60.443401</ele>
        <time>2026-03-20T14:46:41.977Z</time>
      </trkpt>
      <trkpt lat="52.614871" lon="8.265611">
        <ele>60.498999</ele>
        <time>2026-03-20T14:46:45.475Z</time>
      </trkpt>
      <trkpt lat="52.614966" lon="8.265605">
        <ele>60.538451</ele>
        <time>2026-03-20T14:46:47.985Z</time>
      </trkpt>
      <trkpt lat="52.615571" lon="8.265566">
        <ele>60.789707</ele>
        <time>2026-03-20T14:47:03.288Z</time>
      </trkpt>
      <trkpt lat="52.616110" lon="8.265533">
        <ele>60.764430</ele>
        <time>2026-03-20T14:47:16.434Z</time>
      </trkpt>
      <trkpt lat="52.617948" lon="8.265426">
        <ele>59.970838</ele>
        <time>2026-03-20T14:47:57.037Z</time>
      </trkpt>
      <trkpt lat="52.618992" lon="8.265333">
        <ele>58.695411</ele>
        <time>2026-03-20T14:48:16.565Z</time>
      </trkpt>
      <trkpt lat="52.619530" lon="8.265292">
        <ele>58.236969</ele>
        <time>2026-03-20T14:48:26.913Z</time>
      </trkpt>
      <trkpt lat="52.620834" lon="8.265217">
        <ele>57.630273</ele>
        <time>2026-03-20T14:48:55.856Z</time>
      </trkpt>
      <trkpt lat="52.620936" lon="8.265210">
        <ele>57.582805</ele>
        <time>2026-03-20T14:48:58.250Z</time>
      </trkpt>
      <trkpt lat="52.621040" lon="8.265351">
        <ele>57.527075</ele>
        <time>2026-03-20T14:49:01.343Z</time>
      </trkpt>
      <trkpt lat="52.621206" lon="8.264968">
        <ele>57.725012</ele>
        <time>2026-03-20T14:49:07.853Z</time>
      </trkpt>
      <trkpt lat="52.621316" lon="8.264788">
        <ele>57.832438</ele>
        <time>2026-03-20T14:49:11.638Z</time>
      </trkpt>
      <trkpt lat="52.621823" lon="8.264209">
        <ele>58.259870</ele>
        <time>2026-03-20T14:49:27.486Z</time>
      </trkpt>
      <trkpt lat="52.622062" lon="8.263965">
        <ele>58.454683</ele>
        <time>2026-03-20T14:49:35.035Z</time>
      </trkpt>
      <trkpt lat="52.622207" lon="8.263863">
        <ele>58.563922</ele>
        <time>2026-03-20T14:49:39.146Z</time>
      </trkpt>
      <trkpt lat="52.622643" lon="8.263549">
        <ele>58.841789</ele>
        <time>2026-03-20T14:49:51.329Z</time>
      </trkpt>
      <trkpt lat="52.622810" lon="8.263391">
        <ele>58.919678</ele>
        <time>2026-03-20T14:49:56.313Z</time>
      </trkpt>
      <trkpt lat="52.623178" lon="8.263180">
        <ele>59.077270</ele>
        <time>2026-03-20T14:50:06.400Z</time>
      </trkpt>
      <trkpt lat="52.623244" lon="8.263129">
        <ele>59.106754</ele>
        <time>2026-03-20T14:50:08.124Z</time>
      </trkpt>
      <trkpt lat="52.623664" lon="8.263048">
        <ele>59.277779</ele>
        <time>2026-03-20T14:50:17.770Z</time>
      </trkpt>
      <trkpt lat="52.624044" lon="8.263078">
        <ele>59.431643</ele>
        <time>2026-03-20T14:50:25.828Z</time>
      </trkpt>
      <trkpt lat="52.625463" lon="8.263048">
        <ele>60.097089</ele>
        <time>2026-03-20T14:50:57.955Z</time>
      </trkpt>
      <trkpt lat="52.626229" lon="8.262975">
        <ele>60.737114</ele>
        <time>2026-03-20T14:51:18.620Z</time>
      </trkpt>
      <trkpt lat="52.626610" lon="8.262883">
        <ele>61.385036</ele>
        <time>2026-03-20T14:51:29.914Z</time>
      </trkpt>
      <trkpt lat="52.627008" lon="8.262737">
        <ele>62.071114</ele>
        <time>2026-03-20T14:51:42.187Z</time>
      </trkpt>
      <trkpt lat="52.627710" lon="8.262298">
        <ele>63.334537</ele>
        <time>2026-03-20T14:52:04.956Z</time>
      </trkpt>
      <trkpt lat="52.628829" lon="8.261337">
        <ele>64.533475</ele>
        <time>2026-03-20T14:52:39.572Z</time>
      </trkpt>
      <trkpt lat="52.631045" lon="8.259612">
        <ele>64.959691</ele>
        <time>2026-03-20T14:54:10.159Z</time>
      </trkpt>
      <trkpt lat="52.631626" lon="8.258985">
        <ele>64.679780</ele>
        <time>2026-03-20T14:54:34.760Z</time>
      </trkpt>
      <trkpt lat="52.631981" lon="8.258520">
        <ele>64.497006</ele>
        <time>2026-03-20T14:54:50.600Z</time>
      </trkpt>
      <trkpt lat="52.632158" lon="8.258394">
        <ele>64.419298</ele>
        <time>2026-03-20T14:54:57.507Z</time>
      </trkpt>
      <trkpt lat="52.632694" lon="8.257826">
        <ele>64.092402</ele>
        <time>2026-03-20T14:55:20.208Z</time>
      </trkpt>
      <trkpt lat="52.633034" lon="8.257520">
        <ele>63.834733</ele>
        <time>2026-03-20T14:55:33.932Z</time>
      </trkpt>
      <trkpt lat="52.634683" lon="8.256056">
        <ele>61.690768</ele>
        <time>2026-03-20T14:56:38.348Z</time>
      </trkpt>
      <trkpt lat="52.635034" lon="8.255621">
        <ele>60.857720</ele>
        <time>2026-03-20T14:56:52.183Z</time>
      </trkpt>
      <trkpt lat="52.635376" lon="8.255053">
        <ele>59.936696</ele>
        <time>2026-03-20T14:57:06.821Z</time>
      </trkpt>
      <trkpt lat="52.635503" lon="8.254791">
        <ele>59.486085</ele>
        <time>2026-03-20T14:57:12.815Z</time>
      </trkpt>
      <trkpt lat="52.636051" lon="8.253398">
        <ele>56.468990</ele>
        <time>2026-03-20T14:57:42.152Z</time>
      </trkpt>
      <trkpt lat="52.636176" lon="8.253152">
        <ele>55.885876</ele>
        <time>2026-03-20T14:57:47.878Z</time>
      </trkpt>
      <trkpt lat="52.636442" lon="8.252641">
        <ele>54.662325</ele>
        <time>2026-03-20T14:57:54.674Z</time>
      </trkpt>
      <trkpt lat="52.636786" lon="8.252160">
        <ele>53.794180</ele>
        <time>2026-03-20T14:58:02.512Z</time>
      </trkpt>
      <trkpt lat="52.638394" lon="8.250401">
        <ele>51.074320</ele>
        <time>2026-03-20T14:58:38.971Z</time>
      </trkpt>
      <trkpt lat="52.638755" lon="8.249891">
        <ele>50.537659</ele>
        <time>2026-03-20T14:58:48.186Z</time>
      </trkpt>
      <trkpt lat="52.639088" lon="8.249240">
        <ele>49.954532</ele>
        <time>2026-03-20T14:58:58.293Z</time>
      </trkpt>
      <trkpt lat="52.639661" lon="8.247757">
        <ele>48.067955</ele>
        <time>2026-03-20T14:59:18.044Z</time>
      </trkpt>
      <trkpt lat="52.640769" lon="8.244823">
        <ele>44.250001</ele>
        <time>2026-03-20T14:59:53.440Z</time>
      </trkpt>
      <trkpt lat="52.640815" lon="8.244574">
        <ele>44.007109</ele>
        <time>2026-03-20T14:59:56.300Z</time>
      </trkpt>
      <trkpt lat="52.640802" lon="8.244401">
        <ele>43.844436</ele>
        <time>2026-03-20T14:59:58.284Z</time>
      </trkpt>
      <trkpt lat="52.640825" lon="8.244366">
        <ele>43.796292</ele>
        <time>2026-03-20T14:59:58.871Z</time>
      </trkpt>
      <trkpt lat="52.640891" lon="8.244191">
        <ele>43.604014</ele>
        <time>2026-03-20T15:00:01.279Z</time>
      </trkpt>
      <trkpt lat="52.640920" lon="8.244087">
        <ele>43.497207</ele>
        <time>2026-03-20T15:00:02.615Z</time>
      </trkpt>
      <trkpt lat="52.642846" lon="8.245261">
        <ele>44.281941</ele>
        <time>2026-03-20T15:00:55.023Z</time>
      </trkpt>
      <trkpt lat="52.643256" lon="8.245428">
        <ele>44.496866</ele>
        <time>2026-03-20T15:01:05.980Z</time>
      </trkpt>
      <trkpt lat="52.643616" lon="8.245518">
        <ele>44.674228</ele>
        <time>2026-03-20T15:01:15.133Z</time>
      </trkpt>
      <trkpt lat="52.644331" lon="8.245626">
        <ele>45.023965</ele>
        <time>2026-03-20T15:01:32.172Z</time>
      </trkpt>
      <trkpt lat="52.644574" lon="8.245529">
        <ele>45.145753</ele>
        <time>2026-03-20T15:01:37.962Z</time>
      </trkpt>
      <trkpt lat="52.645123" lon="8.245551">
        <ele>45.127768</ele>
        <time>2026-03-20T15:01:50.401Z</time>
      </trkpt>
      <trkpt lat="52.646535" lon="8.245491">
        <ele>44.967563</ele>
        <time>2026-03-20T15:02:20.380Z</time>
      </trkpt>
      <trkpt lat="52.646693" lon="8.245524">
        <ele>44.993756</ele>
        <time>2026-03-20T15:02:24.899Z</time>
      </trkpt>
      <trkpt lat="52.646869" lon="8.245484">
        <ele>45.022976</ele>
        <time>2026-03-20T15:02:30.043Z</time>
      </trkpt>
      <trkpt lat="52.647406" lon="8.245260">
        <ele>45.114078</ele>
        <time>2026-03-20T15:02:46.640Z</time>
      </trkpt>
      <trkpt lat="52.647514" lon="8.245154">
        <ele>45.134751</ele>
        <time>2026-03-20T15:02:49.651Z</time>
      </trkpt>
      <trkpt lat="52.648615" lon="8.244659">
        <ele>45.014408</ele>
        <time>2026-03-20T15:03:17.008Z</time>
      </trkpt>
      <trkpt lat="52.649209" lon="8.244402">
        <ele>44.681552</ele>
        <time>2026-03-20T15:03:29.816Z</time>
      </trkpt>
      <trkpt lat="52.649745" lon="8.244154">
        <ele>44.379811</ele>
        <time>2026-03-20T15:03:40.394Z</time>
      </trkpt>
      <trkpt lat="52.650528" lon="8.243795">
        <ele>43.860626</ele>
        <time>2026-03-20T15:03:55.390Z</time>
      </trkpt>
      <trkpt lat="52.650602" lon="8.243749">
        <ele>43.807738</ele>
        <time>2026-03-20T15:03:57.446Z</time>
      </trkpt>
      <trkpt lat="52.650748" lon="8.243426">
        <ele>43.644326</ele>
        <time>2026-03-20T15:04:03.890Z</time>
      </trkpt>
      <trkpt lat="52.650806" lon="8.243420">
        <ele>43.605464</ele>
        <time>2026-03-20T15:04:05.455Z</time>
      </trkpt>
      <trkpt lat="52.650890" lon="8.243413">
        <ele>43.549220</ele>
        <time>2026-03-20T15:04:07.687Z</time>
      </trkpt>
      <trkpt lat="52.650919" lon="8.243490">
        <ele>43.512451</ele>
        <time>2026-03-20T15:04:09.168Z</time>
      </trkpt>
      <trkpt lat="52.650986" lon="8.243565">
        <ele>43.458292</ele>
        <time>2026-03-20T15:04:11.363Z</time>
      </trkpt>
      <trkpt lat="52.651038" lon="8.243567">
        <ele>43.423509</ele>
        <time>2026-03-20T15:04:12.750Z</time>
      </trkpt>
      <trkpt lat="52.651055" lon="8.243693">
        <ele>43.371143</ele>
        <time>2026-03-20T15:04:14.914Z</time>
      </trkpt>
      <trkpt lat="52.652127" lon="8.243165">
        <ele>43.551386</ele>
        <time>2026-03-20T15:04:42.318Z</time>
      </trkpt>
      <trkpt lat="52.652199" lon="8.243131">
        <ele>43.604608</ele>
        <time>2026-03-20T15:04:44.407Z</time>
      </trkpt>
      <trkpt lat="52.652460" lon="8.243012">
        <ele>43.797040</ele>
        <time>2026-03-20T15:04:51.910Z</time>
      </trkpt>
      <trkpt lat="52.653050" lon="8.242751">
        <ele>44.231133</ele>
        <time>2026-03-20T15:05:08.991Z</time>
      </trkpt>
      <trkpt lat="52.653091" lon="8.242736">
        <ele>44.260977</ele>
        <time>2026-03-20T15:05:10.173Z</time>
      </trkpt>
      <trkpt lat="52.654263" lon="8.242208">
        <ele>44.436946</ele>
        <time>2026-03-20T15:05:40.674Z</time>
      </trkpt>
      <trkpt lat="52.654547" lon="8.242079">
        <ele>44.460161</ele>
        <time>2026-03-20T15:05:47.025Z</time>
      </trkpt>
      <trkpt lat="52.655076" lon="8.241821">
        <ele>44.400483</ele>
        <time>2026-03-20T15:05:58.447Z</time>
      </trkpt>
      <trkpt lat="52.655444" lon="8.241652">
        <ele>44.140020</ele>
        <time>2026-03-20T15:06:06.216Z</time>
      </trkpt>
      <trkpt lat="52.655647" lon="8.241560">
        <ele>43.996476</ele>
        <time>2026-03-20T15:06:10.553Z</time>
      </trkpt>
      <trkpt lat="52.655928" lon="8.241438">
        <ele>43.798352</ele>
        <time>2026-03-20T15:06:16.638Z</time>
      </trkpt>
      <trkpt lat="52.656845" lon="8.241023">
        <ele>43.182808</ele>
        <time>2026-03-20T15:06:36.796Z</time>
      </trkpt>
      <trkpt lat="52.657069" lon="8.240936">
        <ele>43.070054</ele>
        <time>2026-03-20T15:06:41.801Z</time>
      </trkpt>
      <trkpt lat="52.658998" lon="8.240093">
        <ele>42.012640</ele>
        <time>2026-03-20T15:07:24.614Z</time>
      </trkpt>
      <trkpt lat="52.659148" lon="8.240030">
        <ele>41.916186</ele>
        <time>2026-03-20T15:07:27.871Z</time>
      </trkpt>
      <trkpt lat="52.659419" lon="8.239910">
        <ele>41.741335</ele>
        <time>2026-03-20T15:07:33.721Z</time>
      </trkpt>
      <trkpt lat="52.659935" lon="8.239851">
        <ele>41.419032</ele>
        <time>2026-03-20T15:07:44.500Z</time>
      </trkpt>
      <trkpt lat="52.660656" lon="8.240040">
        <ele>41.195911</ele>
        <time>2026-03-20T15:07:59.949Z</time>
      </trkpt>
      <trkpt lat="52.660783" lon="8.240070">
        <ele>41.177641</ele>
        <time>2026-03-20T15:08:02.756Z</time>
      </trkpt>
      <trkpt lat="52.661104" lon="8.240154">
        <ele>41.131356</ele>
        <time>2026-03-20T15:08:09.953Z</time>
      </trkpt>
      <trkpt lat="52.662096" lon="8.240432">
        <ele>41.098920</ele>
        <time>2026-03-20T15:08:33.844Z</time>
      </trkpt>
      <trkpt lat="52.662551" lon="8.240550">
        <ele>41.390182</ele>
        <time>2026-03-20T15:08:46.023Z</time>
      </trkpt>
      <trkpt lat="52.662625" lon="8.240564">
        <ele>41.437284</ele>
        <time>2026-03-20T15:08:47.950Z</time>
      </trkpt>
      <trkpt lat="52.662654" lon="8.240567">
        <ele>41.455658</ele>
        <time>2026-03-20T15:08:48.710Z</time>
      </trkpt>
      <trkpt lat="52.663331" lon="8.240096">
        <ele>41.920318</ele>
        <time>2026-03-20T15:09:07.200Z</time>
      </trkpt>
      <trkpt lat="52.663593" lon="8.239917">
        <ele>42.099657</ele>
        <time>2026-03-20T15:09:14.112Z</time>
      </trkpt>
      <trkpt lat="52.663660" lon="8.239874">
        <ele>42.145121</ele>
        <time>2026-03-20T15:09:15.830Z</time>
      </trkpt>
      <trkpt lat="52.663694" lon="8.239848">
        <ele>42.187863</ele>
        <time>2026-03-20T15:09:16.728Z</time>
      </trkpt>
      <trkpt lat="52.664026" lon="8.239584">
        <ele>42.613991</ele>
        <time>2026-03-20T15:09:25.990Z</time>
      </trkpt>
      <trkpt lat="52.664130" lon="8.239454">
        <ele>42.764871</ele>
        <time>2026-03-20T15:09:29.344Z</time>
      </trkpt>
      <trkpt lat="52.664690" lon="8.238962">
        <ele>43.498456</ele>
        <time>2026-03-20T15:09:46.363Z</time>
      </trkpt>
      <trkpt lat="52.664783" lon="8.238881">
        <ele>43.620051</ele>
        <time>2026-03-20T15:09:49.436Z</time>
      </trkpt>
      <trkpt lat="52.664809" lon="8.238862">
        <ele>43.652930</ele>
        <time>2026-03-20T15:09:50.297Z</time>
      </trkpt>
      <trkpt lat="52.664915" lon="8.238788">
        <ele>43.786007</ele>
        <time>2026-03-20T15:09:53.636Z</time>
      </trkpt>
      <trkpt lat="52.665309" lon="8.238562">
        <ele>44.236522</ele>
        <time>2026-03-20T15:10:05.652Z</time>
      </trkpt>
      <trkpt lat="52.665581" lon="8.238242">
        <ele>44.337789</ele>
        <time>2026-03-20T15:10:14.919Z</time>
      </trkpt>
      <trkpt lat="52.665670" lon="8.238252">
        <ele>44.364825</ele>
        <time>2026-03-20T15:10:17.374Z</time>
      </trkpt>
      <trkpt lat="52.665720" lon="8.238052">
        <ele>44.404586</ele>
        <time>2026-03-20T15:10:21.042Z</time>
      </trkpt>
      <trkpt lat="52.665781" lon="8.237297">
        <ele>44.544581</ele>
        <time>2026-03-20T15:10:32.773Z</time>
      </trkpt>
      <trkpt lat="52.665731" lon="8.236914">
        <ele>44.616590</ele>
        <time>2026-03-20T15:10:38.293Z</time>
      </trkpt>
      <trkpt lat="52.665673" lon="8.236676">
        <ele>44.663734</ele>
        <time>2026-03-20T15:10:42.583Z</time>
      </trkpt>
      <trkpt lat="52.665644" lon="8.236455">
        <ele>44.705294</ele>
        <time>2026-03-20T15:10:45.390Z</time>
      </trkpt>
      <trkpt lat="52.665660" lon="8.235907">
        <ele>44.610096</ele>
        <time>2026-03-20T15:10:51.820Z</time>
      </trkpt>
      <trkpt lat="52.665773" lon="8.235702">
        <ele>44.382050</ele>
        <time>2026-03-20T15:10:56.012Z</time>
      </trkpt>
      <trkpt lat="52.665969" lon="8.235320">
        <ele>43.970146</ele>
        <time>2026-03-20T15:11:01.999Z</time>
      </trkpt>
      <trkpt lat="52.666077" lon="8.234903">
        <ele>43.596884</ele>
        <time>2026-03-20T15:11:07.626Z</time>
      </trkpt>
      <trkpt lat="52.666164" lon="8.234524">
        <ele>43.263294</ele>
        <time>2026-03-20T15:11:12.576Z</time>
      </trkpt>
      <trkpt lat="52.666119" lon="8.234331">
        <ele>43.093081</ele>
        <time>2026-03-20T15:11:14.910Z</time>
      </trkpt>
      <trkpt lat="52.666100" lon="8.234031">
        <ele>42.844781</ele>
        <time>2026-03-20T15:11:18.201Z</time>
      </trkpt>
      <trkpt lat="52.666190" lon="8.233679">
        <ele>42.530320</ele>
        <time>2026-03-20T15:11:22.340Z</time>
      </trkpt>
      <trkpt lat="52.666420" lon="8.233289">
        <ele>41.887407</ele>
        <time>2026-03-20T15:11:28.186Z</time>
      </trkpt>
      <trkpt lat="52.666546" lon="8.233083">
        <ele>41.455870</ele>
        <time>2026-03-20T15:11:31.329Z</time>
      </trkpt>
      <trkpt lat="52.666714" lon="8.232810">
        <ele>40.882217</ele>
        <time>2026-03-20T15:11:35.458Z</time>
      </trkpt>
      <trkpt lat="52.666904" lon="8.232501">
        <ele>40.233186</ele>
        <time>2026-03-20T15:11:40.022Z</time>
      </trkpt>
      <trkpt lat="52.667315" lon="8.231824">
        <ele>38.820313</ele>
        <time>2026-03-20T15:11:49.570Z</time>
      </trkpt>
      <trkpt lat="52.667598" lon="8.231357">
        <ele>37.896679</ele>
        <time>2026-03-20T15:11:56.539Z</time>
      </trkpt>
      <trkpt lat="52.667921" lon="8.230882">
        <ele>37.332745</ele>
        <time>2026-03-20T15:12:04.330Z</time>
      </trkpt>
      <trkpt lat="52.667977" lon="8.230935">
        <ele>37.248611</ele>
        <time>2026-03-20T15:12:05.472Z</time>
      </trkpt>
      <trkpt lat="52.668042" lon="8.230920">
        <ele>37.163090</ele>
        <time>2026-03-20T15:12:06.626Z</time>
      </trkpt>
      <trkpt lat="52.668097" lon="8.230792">
        <ele>37.039128</ele>
        <time>2026-03-20T15:12:08.331Z</time>
      </trkpt>
      <trkpt lat="52.668064" lon="8.230645">
        <ele>36.915266</ele>
        <time>2026-03-20T15:12:10.056Z</time>
      </trkpt>
      <trkpt lat="52.668415" lon="8.230185">
        <ele>36.331054</ele>
        <time>2026-03-20T15:12:18.744Z</time>
      </trkpt>
      <trkpt lat="52.668570" lon="8.230049">
        <ele>36.102274</ele>
        <time>2026-03-20T15:12:22.329Z</time>
      </trkpt>
      <trkpt lat="52.668487" lon="8.229817">
        <ele>35.889427</ele>
        <time>2026-03-20T15:12:25.802Z</time>
      </trkpt>
      <trkpt lat="52.668345" lon="8.229314">
        <ele>35.612432</ele>
        <time>2026-03-20T15:12:33.190Z</time>
      </trkpt>
      <trkpt lat="52.668315" lon="8.229163">
        <ele>35.613701</ele>
        <time>2026-03-20T15:12:35.340Z</time>
      </trkpt>
      <trkpt lat="52.668149" lon="8.228263">
        <ele>35.621215</ele>
        <time>2026-03-20T15:12:48.434Z</time>
      </trkpt>
      <trkpt lat="52.668046" lon="8.227887">
        <ele>35.624511</ele>
        <time>2026-03-20T15:12:54.597Z</time>
      </trkpt>
      <trkpt lat="52.667863" lon="8.227383">
        <ele>35.629203</ele>
        <time>2026-03-20T15:13:02.514Z</time>
      </trkpt>
      <trkpt lat="52.667957" lon="8.227267">
        <ele>35.630749</ele>
        <time>2026-03-20T15:13:05.155Z</time>
      </trkpt>
      <trkpt lat="52.668061" lon="8.227139">
        <ele>35.632459</ele>
        <time>2026-03-20T15:13:08.030Z</time>
      </trkpt>
      <trkpt lat="52.668287" lon="8.226741">
        <ele>35.550330</ele>
        <time>2026-03-20T15:13:15.379Z</time>
      </trkpt>
      <trkpt lat="52.668421" lon="8.226423">
        <ele>35.437444</ele>
        <time>2026-03-20T15:13:20.692Z</time>
      </trkpt>
      <trkpt lat="52.668702" lon="8.225779">
        <ele>35.206162</ele>
        <time>2026-03-20T15:13:31.453Z</time>
      </trkpt>
      <trkpt lat="52.668814" lon="8.225630">
        <ele>35.136986</ele>
        <time>2026-03-20T15:13:34.542Z</time>
      </trkpt>
      <trkpt lat="52.668950" lon="8.225511">
        <ele>35.062975</ele>
        <time>2026-03-20T15:13:37.766Z</time>
      </trkpt>
      <trkpt lat="52.669100" lon="8.225433">
        <ele>34.987368</ele>
        <time>2026-03-20T15:13:40.995Z</time>
      </trkpt>
      <trkpt lat="52.669261" lon="8.225410">
        <ele>34.909684</ele>
        <time>2026-03-20T15:13:44.276Z</time>
      </trkpt>
      <trkpt lat="52.669618" lon="8.225457">
        <ele>34.707095</ele>
        <time>2026-03-20T15:13:51.637Z</time>
      </trkpt>
      <trkpt lat="52.669910" lon="8.225361">
        <ele>34.429356</ele>
        <time>2026-03-20T15:13:57.781Z</time>
      </trkpt>
      <trkpt lat="52.670085" lon="8.225165">
        <ele>34.232025</ele>
        <time>2026-03-20T15:14:02.099Z</time>
      </trkpt>
      <trkpt lat="52.670188" lon="8.224917">
        <ele>34.061995</ele>
        <time>2026-03-20T15:14:05.790Z</time>
      </trkpt>
      <trkpt lat="52.670311" lon="8.224412">
        <ele>33.754159</ele>
        <time>2026-03-20T15:14:12.388Z</time>
      </trkpt>
      <trkpt lat="52.670338" lon="8.224274">
        <ele>33.672136</ele>
        <time>2026-03-20T15:14:14.148Z</time>
      </trkpt>
      <trkpt lat="52.670611" lon="8.222965">
        <ele>32.952144</ele>
        <time>2026-03-20T15:14:31.227Z</time>
      </trkpt>
      <trkpt lat="52.670959" lon="8.221219">
        <ele>32.235296</ele>
        <time>2026-03-20T15:14:54.397Z</time>
      </trkpt>
      <trkpt lat="52.671221" lon="8.219955">
        <ele>31.935195</ele>
        <time>2026-03-20T15:15:12.359Z</time>
      </trkpt>
      <trkpt lat="52.671263" lon="8.219769">
        <ele>31.935195</ele>
        <time>2026-03-20T15:15:15.124Z</time>
      </trkpt>
      <trkpt lat="52.671324" lon="8.219465">
        <ele>31.935195</ele>
        <time>2026-03-20T15:15:19.661Z</time>
      </trkpt>
      <trkpt lat="52.671334" lon="8.219419">
        <ele>31.935195</ele>
        <time>2026-03-20T15:15:20.358Z</time>
      </trkpt>
      <trkpt lat="52.671399" lon="8.219092">
        <ele>31.935195</ele>
        <time>2026-03-20T15:15:25.262Z</time>
      </trkpt>
      <trkpt lat="52.671333" lon="8.219059">
        <ele>31.935195</ele>
        <time>2026-03-20T15:15:27.291Z</time>
      </trkpt>
      <trkpt lat="52.671256" lon="8.219017">
        <ele>31.935195</ele>
        <time>2026-03-20T15:15:29.695Z</time>
      </trkpt>
    </trkseg>
  </trk>
</gpx>